<?xml version="1.0" encoding="UTF-8" standalone="no" ?>
<gpx xmlns="http://www.topografix.com/GPX/1/1" xmlns:xsi="http://www.w3.org/2001/XMLSchema-instance" xsi:schemaLocation="http://www.topografix.com/GPX/1/1 http://www.topografix.com/GPX/1/1/gpx.xsd" version="1.1" creator="VisuGPX - https://www.visugpx.com">
  <metadata>
    <name>19-06-2017 Ciney - Méan</name>
    <desc><![CDATA[Itinéraire de détente en vélo électrique (VTC). ]]></desc>
  </metadata>
  <trk>
    <name><![CDATA[Tracé 19 juin 2017 17:36:03]]></name>
    <trkseg>
      <trkpt lat="50.29446" lon="5.09487">
        <ele>278.61876224487</ele>
        <time>2017-06-19T15:36:03Z</time>
      </trkpt>
      <trkpt lat="50.29442" lon="5.09497">
        <ele>284.75591630495</ele>
        <time>2017-06-19T15:36:24Z</time>
      </trkpt>
      <trkpt lat="50.2943" lon="5.09516">
        <ele>285.62985860993</ele>
        <time>2017-06-19T15:36:28Z</time>
      </trkpt>
      <trkpt lat="50.29425" lon="5.09526">
        <ele>269.16870905203</ele>
        <time>2017-06-19T15:36:32Z</time>
      </trkpt>
      <trkpt lat="50.29418" lon="5.09543">
        <ele>262.16685670138</ele>
        <time>2017-06-19T15:36:36Z</time>
      </trkpt>
      <trkpt lat="50.29414" lon="5.09548">
        <ele>261.6909322186</ele>
        <time>2017-06-19T15:36:50Z</time>
      </trkpt>
      <trkpt lat="50.29415" lon="5.09562">
        <ele>265.60325957839</ele>
        <time>2017-06-19T15:36:56Z</time>
      </trkpt>
      <trkpt lat="50.29425" lon="5.09578">
        <ele>267.58407563174</ele>
        <time>2017-06-19T15:37:01Z</time>
      </trkpt>
      <trkpt lat="50.29436" lon="5.09599">
        <ele>270.1845554257</ele>
        <time>2017-06-19T15:37:05Z</time>
      </trkpt>
      <trkpt lat="50.29451" lon="5.09628">
        <ele>273.12930887439</ele>
        <time>2017-06-19T15:37:10Z</time>
      </trkpt>
      <trkpt lat="50.29471" lon="5.09661">
        <ele>273.61326988966</ele>
        <time>2017-06-19T15:37:15Z</time>
      </trkpt>
      <trkpt lat="50.29484" lon="5.09679">
        <ele>271.20162308872</ele>
        <time>2017-06-19T15:37:19Z</time>
      </trkpt>
      <trkpt lat="50.29502" lon="5.09707">
        <ele>269.48553297892</ele>
        <time>2017-06-19T15:37:24Z</time>
      </trkpt>
      <trkpt lat="50.2951" lon="5.0972">
        <ele>268.89571777826</ele>
        <time>2017-06-19T15:37:26Z</time>
      </trkpt>
      <trkpt lat="50.29603" lon="5.0988">
        <ele>263.17170579264</ele>
        <time>2017-06-19T15:37:52Z</time>
      </trkpt>
      <trkpt lat="50.29625" lon="5.09906">
        <ele>263.6474665705</ele>
        <time>2017-06-19T15:37:56Z</time>
      </trkpt>
      <trkpt lat="50.29651" lon="5.09927">
        <ele>266.16947847756</ele>
        <time>2017-06-19T15:38:01Z</time>
      </trkpt>
      <trkpt lat="50.29676" lon="5.09947">
        <ele>268.86314188831</ele>
        <time>2017-06-19T15:38:06Z</time>
      </trkpt>
      <trkpt lat="50.2967" lon="5.09981">
        <ele>269.33467960002</ele>
        <time>2017-06-19T15:38:11Z</time>
      </trkpt>
      <trkpt lat="50.29666" lon="5.10011">
        <ele>267.1515834707</ele>
        <time>2017-06-19T15:38:15Z</time>
      </trkpt>
      <trkpt lat="50.29685" lon="5.10039">
        <ele>268.11092725008</ele>
        <time>2017-06-19T15:38:20Z</time>
      </trkpt>
      <trkpt lat="50.29705" lon="5.10068">
        <ele>269.84920754766</ele>
        <time>2017-06-19T15:38:25Z</time>
      </trkpt>
      <trkpt lat="50.29724" lon="5.10086">
        <ele>270.03031822806</ele>
        <time>2017-06-19T15:38:29Z</time>
      </trkpt>
      <trkpt lat="50.29737" lon="5.10107">
        <ele>270.46652710989</ele>
        <time>2017-06-19T15:38:33Z</time>
      </trkpt>
      <trkpt lat="50.29737" lon="5.10131">
        <ele>270.56795585617</ele>
        <time>2017-06-19T15:38:38Z</time>
      </trkpt>
      <trkpt lat="50.29721" lon="5.10151">
        <ele>270.69206630724</ele>
        <time>2017-06-19T15:38:42Z</time>
      </trkpt>
      <trkpt lat="50.29706" lon="5.10173">
        <ele>269.36581086717</ele>
        <time>2017-06-19T15:38:46Z</time>
      </trkpt>
      <trkpt lat="50.29697" lon="5.10208">
        <ele>268.72108945949</ele>
        <time>2017-06-19T15:38:51Z</time>
      </trkpt>
      <trkpt lat="50.29718" lon="5.10244">
        <ele>270.9097190052</ele>
        <time>2017-06-19T15:38:56Z</time>
      </trkpt>
      <trkpt lat="50.29722" lon="5.10272">
        <ele>272.16287520641</ele>
        <time>2017-06-19T15:39:00Z</time>
      </trkpt>
      <trkpt lat="50.29702" lon="5.10296">
        <ele>269.43687275616</ele>
        <time>2017-06-19T15:39:05Z</time>
      </trkpt>
      <trkpt lat="50.29678" lon="5.10316">
        <ele>268.99218413477</ele>
        <time>2017-06-19T15:39:10Z</time>
      </trkpt>
      <trkpt lat="50.29656" lon="5.10332">
        <ele>270.14016513537</ele>
        <time>2017-06-19T15:39:14Z</time>
      </trkpt>
      <trkpt lat="50.2958" lon="5.10421">
        <ele>268.46934231919</ele>
        <time>2017-06-19T15:39:30Z</time>
      </trkpt>
      <trkpt lat="50.29563" lon="5.10447">
        <ele>268.73072803826</ele>
        <time>2017-06-19T15:39:33Z</time>
      </trkpt>
      <trkpt lat="50.29501" lon="5.1055">
        <ele>270.11521696226</ele>
        <time>2017-06-19T15:39:49Z</time>
      </trkpt>
      <trkpt lat="50.2948" lon="5.10592">
        <ele>270.82780992198</ele>
        <time>2017-06-19T15:39:53Z</time>
      </trkpt>
      <trkpt lat="50.29422" lon="5.10703">
        <ele>276.47794894816</ele>
        <time>2017-06-19T15:40:09Z</time>
      </trkpt>
      <trkpt lat="50.2941" lon="5.10732">
        <ele>279.60530373815</ele>
        <time>2017-06-19T15:40:13Z</time>
      </trkpt>
      <trkpt lat="50.29428" lon="5.10757">
        <ele>279.80482064167</ele>
        <time>2017-06-19T15:40:17Z</time>
      </trkpt>
      <trkpt lat="50.29443" lon="5.10784">
        <ele>280.04342910776</ele>
        <time>2017-06-19T15:40:21Z</time>
      </trkpt>
      <trkpt lat="50.29449" lon="5.10794">
        <ele>280.66626310905</ele>
        <time>2017-06-19T15:40:30Z</time>
      </trkpt>
      <trkpt lat="50.29449" lon="5.10796">
        <ele>280.81653072588</ele>
        <time>2017-06-19T15:40:31Z</time>
      </trkpt>
      <trkpt lat="50.29543" lon="5.10925">
        <ele>280.25120045302</ele>
        <time>2017-06-19T15:40:52Z</time>
      </trkpt>
      <trkpt lat="50.2957" lon="5.10959">
        <ele>279.17712395223</ele>
        <time>2017-06-19T15:40:56Z</time>
      </trkpt>
      <trkpt lat="50.29582" lon="5.10972">
        <ele>279.05586851145</ele>
        <time>2017-06-19T15:40:59Z</time>
      </trkpt>
      <trkpt lat="50.29599" lon="5.10986">
        <ele>278.67121117343</ele>
        <time>2017-06-19T15:41:03Z</time>
      </trkpt>
      <trkpt lat="50.2962" lon="5.11012">
        <ele>278.57148204963</ele>
        <time>2017-06-19T15:41:07Z</time>
      </trkpt>
      <trkpt lat="50.29654" lon="5.11042">
        <ele>274.82192078597</ele>
        <time>2017-06-19T15:41:12Z</time>
      </trkpt>
      <trkpt lat="50.2969" lon="5.11071">
        <ele>273.46378248317</ele>
        <time>2017-06-19T15:41:17Z</time>
      </trkpt>
      <trkpt lat="50.29717" lon="5.11099">
        <ele>270.75570823117</ele>
        <time>2017-06-19T15:41:21Z</time>
      </trkpt>
      <trkpt lat="50.29741" lon="5.1113">
        <ele>268.35119676752</ele>
        <time>2017-06-19T15:41:25Z</time>
      </trkpt>
      <trkpt lat="50.29762" lon="5.11162">
        <ele>266.00505456646</ele>
        <time>2017-06-19T15:41:29Z</time>
      </trkpt>
      <trkpt lat="50.29783" lon="5.11193">
        <ele>265.26929542382</ele>
        <time>2017-06-19T15:41:33Z</time>
      </trkpt>
      <trkpt lat="50.29805" lon="5.11226">
        <ele>264.75721030738</ele>
        <time>2017-06-19T15:41:37Z</time>
      </trkpt>
      <trkpt lat="50.29826" lon="5.1126">
        <ele>264.47364419708</ele>
        <time>2017-06-19T15:41:41Z</time>
      </trkpt>
      <trkpt lat="50.2985" lon="5.11305">
        <ele>264.9717515258</ele>
        <time>2017-06-19T15:41:46Z</time>
      </trkpt>
      <trkpt lat="50.29872" lon="5.11341">
        <ele>265.57861269603</ele>
        <time>2017-06-19T15:41:50Z</time>
      </trkpt>
      <trkpt lat="50.29902" lon="5.11386">
        <ele>265.56755356944</ele>
        <time>2017-06-19T15:41:55Z</time>
      </trkpt>
      <trkpt lat="50.29923" lon="5.11426">
        <ele>263.74229973448</ele>
        <time>2017-06-19T15:41:59Z</time>
      </trkpt>
      <trkpt lat="50.29923" lon="5.11494">
        <ele>259.91460431272</ele>
        <time>2017-06-19T15:42:04Z</time>
      </trkpt>
      <trkpt lat="50.29896" lon="5.11553">
        <ele>260.07524155872</ele>
        <time>2017-06-19T15:42:09Z</time>
      </trkpt>
      <trkpt lat="50.29876" lon="5.11591">
        <ele>259.24118371497</ele>
        <time>2017-06-19T15:42:13Z</time>
      </trkpt>
      <trkpt lat="50.29923" lon="5.11763">
        <ele>250.6972274621</ele>
        <time>2017-06-19T15:42:33Z</time>
      </trkpt>
      <trkpt lat="50.29941" lon="5.11778">
        <ele>251.69857118242</ele>
        <time>2017-06-19T15:42:38Z</time>
      </trkpt>
      <trkpt lat="50.29971" lon="5.11772">
        <ele>253.93817616721</ele>
        <time>2017-06-19T15:42:43Z</time>
      </trkpt>
      <trkpt lat="50.29996" lon="5.11761">
        <ele>253.71490925683</ele>
        <time>2017-06-19T15:42:47Z</time>
      </trkpt>
      <trkpt lat="50.30017" lon="5.1175">
        <ele>252.75279329576</ele>
        <time>2017-06-19T15:42:51Z</time>
      </trkpt>
      <trkpt lat="50.30043" lon="5.11733">
        <ele>253.41159112245</ele>
        <time>2017-06-19T15:42:56Z</time>
      </trkpt>
      <trkpt lat="50.30059" lon="5.11711">
        <ele>254.92516967389</ele>
        <time>2017-06-19T15:43:00Z</time>
      </trkpt>
      <trkpt lat="50.30079" lon="5.11705">
        <ele>258.13999776704</ele>
        <time>2017-06-19T15:43:04Z</time>
      </trkpt>
      <trkpt lat="50.30108" lon="5.11723">
        <ele>259.72014116416</ele>
        <time>2017-06-19T15:43:09Z</time>
      </trkpt>
      <trkpt lat="50.30132" lon="5.11723">
        <ele>258.92962679048</ele>
        <time>2017-06-19T15:43:13Z</time>
      </trkpt>
      <trkpt lat="50.30155" lon="5.11721">
        <ele>257.98218242235</ele>
        <time>2017-06-19T15:43:17Z</time>
      </trkpt>
      <trkpt lat="50.30174" lon="5.11736">
        <ele>258.85260411952</ele>
        <time>2017-06-19T15:43:21Z</time>
      </trkpt>
      <trkpt lat="50.30203" lon="5.11715">
        <ele>258.72638811403</ele>
        <time>2017-06-19T15:43:26Z</time>
      </trkpt>
      <trkpt lat="50.30223" lon="5.11683">
        <ele>256.94755193027</ele>
        <time>2017-06-19T15:43:30Z</time>
      </trkpt>
      <trkpt lat="50.30243" lon="5.11656">
        <ele>256.19943850532</ele>
        <time>2017-06-19T15:43:34Z</time>
      </trkpt>
      <trkpt lat="50.3027" lon="5.11639">
        <ele>255.35964922363</ele>
        <time>2017-06-19T15:43:38Z</time>
      </trkpt>
      <trkpt lat="50.30292" lon="5.11629">
        <ele>257.68100703159</ele>
        <time>2017-06-19T15:43:42Z</time>
      </trkpt>
      <trkpt lat="50.30308" lon="5.11645">
        <ele>257.42695899989</ele>
        <time>2017-06-19T15:43:46Z</time>
      </trkpt>
      <trkpt lat="50.30316" lon="5.11681">
        <ele>257.53151678084</ele>
        <time>2017-06-19T15:43:50Z</time>
      </trkpt>
      <trkpt lat="50.30324" lon="5.1173">
        <ele>259.81016153736</ele>
        <time>2017-06-19T15:43:55Z</time>
      </trkpt>
      <trkpt lat="50.3033" lon="5.11781">
        <ele>263.3587487369</ele>
        <time>2017-06-19T15:44:00Z</time>
      </trkpt>
      <trkpt lat="50.30334" lon="5.11822">
        <ele>265.0311752843</ele>
        <time>2017-06-19T15:44:04Z</time>
      </trkpt>
      <trkpt lat="50.30339" lon="5.11871">
        <ele>266.04956478712</ele>
        <time>2017-06-19T15:44:09Z</time>
      </trkpt>
      <trkpt lat="50.30345" lon="5.1191">
        <ele>267.77380789986</ele>
        <time>2017-06-19T15:44:13Z</time>
      </trkpt>
      <trkpt lat="50.30354" lon="5.11948">
        <ele>269.29113866739</ele>
        <time>2017-06-19T15:44:17Z</time>
      </trkpt>
      <trkpt lat="50.30363" lon="5.11984">
        <ele>269.62333484994</ele>
        <time>2017-06-19T15:44:21Z</time>
      </trkpt>
      <trkpt lat="50.30376" lon="5.12033">
        <ele>271.04054874358</ele>
        <time>2017-06-19T15:44:26Z</time>
      </trkpt>
      <trkpt lat="50.30386" lon="5.12071">
        <ele>272.6116889493</ele>
        <time>2017-06-19T15:44:30Z</time>
      </trkpt>
      <trkpt lat="50.30395" lon="5.1211">
        <ele>273.31645069653</ele>
        <time>2017-06-19T15:44:34Z</time>
      </trkpt>
      <trkpt lat="50.30403" lon="5.12139">
        <ele>272.33272752752</ele>
        <time>2017-06-19T15:44:37Z</time>
      </trkpt>
      <trkpt lat="50.30416" lon="5.12174">
        <ele>271.04369764731</ele>
        <time>2017-06-19T15:44:41Z</time>
      </trkpt>
      <trkpt lat="50.30426" lon="5.12226">
        <ele>266.61334927171</ele>
        <time>2017-06-19T15:44:46Z</time>
      </trkpt>
      <trkpt lat="50.30436" lon="5.12267">
        <ele>266.80059797048</ele>
        <time>2017-06-19T15:44:50Z</time>
      </trkpt>
      <trkpt lat="50.30445" lon="5.12304">
        <ele>267.30441792599</ele>
        <time>2017-06-19T15:44:54Z</time>
      </trkpt>
      <trkpt lat="50.30454" lon="5.12336">
        <ele>267.16230493334</ele>
        <time>2017-06-19T15:44:58Z</time>
      </trkpt>
      <trkpt lat="50.30466" lon="5.12375">
        <ele>267.21888104136</ele>
        <time>2017-06-19T15:45:03Z</time>
      </trkpt>
      <trkpt lat="50.30481" lon="5.1241">
        <ele>268.25628735954</ele>
        <time>2017-06-19T15:45:08Z</time>
      </trkpt>
      <trkpt lat="50.30495" lon="5.12438">
        <ele>269.30924416475</ele>
        <time>2017-06-19T15:45:12Z</time>
      </trkpt>
      <trkpt lat="50.30513" lon="5.12466">
        <ele>270.3359350671</ele>
        <time>2017-06-19T15:45:16Z</time>
      </trkpt>
      <trkpt lat="50.30534" lon="5.12502">
        <ele>272.10070037966</ele>
        <time>2017-06-19T15:45:21Z</time>
      </trkpt>
      <trkpt lat="50.30556" lon="5.12541">
        <ele>272.86082913379</ele>
        <time>2017-06-19T15:45:26Z</time>
      </trkpt>
      <trkpt lat="50.30569" lon="5.12575">
        <ele>273.79376981667</ele>
        <time>2017-06-19T15:45:30Z</time>
      </trkpt>
      <trkpt lat="50.30582" lon="5.12623">
        <ele>274.12305560808</ele>
        <time>2017-06-19T15:45:35Z</time>
      </trkpt>
      <trkpt lat="50.3059" lon="5.12663">
        <ele>274.09025072386</ele>
        <time>2017-06-19T15:45:39Z</time>
      </trkpt>
      <trkpt lat="50.30601" lon="5.12713">
        <ele>273.86614097173</ele>
        <time>2017-06-19T15:45:44Z</time>
      </trkpt>
      <trkpt lat="50.30615" lon="5.12761">
        <ele>273.89377791956</ele>
        <time>2017-06-19T15:45:49Z</time>
      </trkpt>
      <trkpt lat="50.3063" lon="5.12798">
        <ele>274.26130921685</ele>
        <time>2017-06-19T15:45:53Z</time>
      </trkpt>
      <trkpt lat="50.30647" lon="5.12834">
        <ele>275.2836339302</ele>
        <time>2017-06-19T15:45:57Z</time>
      </trkpt>
      <trkpt lat="50.30663" lon="5.12869">
        <ele>275.34121468438</ele>
        <time>2017-06-19T15:46:01Z</time>
      </trkpt>
      <trkpt lat="50.30679" lon="5.12902">
        <ele>274.76356061258</ele>
        <time>2017-06-19T15:46:05Z</time>
      </trkpt>
      <trkpt lat="50.30699" lon="5.12946">
        <ele>274.89681125326</ele>
        <time>2017-06-19T15:46:10Z</time>
      </trkpt>
      <trkpt lat="50.30715" lon="5.12979">
        <ele>275.43340543494</ele>
        <time>2017-06-19T15:46:14Z</time>
      </trkpt>
      <trkpt lat="50.30733" lon="5.13021">
        <ele>276.62114269217</ele>
        <time>2017-06-19T15:46:19Z</time>
      </trkpt>
      <trkpt lat="50.30742" lon="5.13068">
        <ele>277.7781694065</ele>
        <time>2017-06-19T15:46:24Z</time>
      </trkpt>
      <trkpt lat="50.30745" lon="5.13106">
        <ele>278.63846645133</ele>
        <time>2017-06-19T15:46:28Z</time>
      </trkpt>
      <trkpt lat="50.30748" lon="5.13143">
        <ele>279.51708030137</ele>
        <time>2017-06-19T15:46:32Z</time>
      </trkpt>
      <trkpt lat="50.30753" lon="5.13191">
        <ele>281.06735322879</ele>
        <time>2017-06-19T15:46:37Z</time>
      </trkpt>
      <trkpt lat="50.30757" lon="5.13243">
        <ele>281.2121087951</ele>
        <time>2017-06-19T15:46:42Z</time>
      </trkpt>
      <trkpt lat="50.30761" lon="5.13284">
        <ele>281.35361134871</ele>
        <time>2017-06-19T15:46:46Z</time>
      </trkpt>
      <trkpt lat="50.30768" lon="5.13336">
        <ele>281.69754460154</ele>
        <time>2017-06-19T15:46:51Z</time>
      </trkpt>
      <trkpt lat="50.30778" lon="5.13387">
        <ele>282.24475423181</ele>
        <time>2017-06-19T15:46:56Z</time>
      </trkpt>
      <trkpt lat="50.30787" lon="5.13426">
        <ele>282.66885677966</ele>
        <time>2017-06-19T15:47:00Z</time>
      </trkpt>
      <trkpt lat="50.30798" lon="5.13474">
        <ele>283.17183399528</ele>
        <time>2017-06-19T15:47:05Z</time>
      </trkpt>
      <trkpt lat="50.30806" lon="5.13512">
        <ele>283.16489773926</ele>
        <time>2017-06-19T15:47:09Z</time>
      </trkpt>
      <trkpt lat="50.30816" lon="5.13548">
        <ele>283.38502304123</ele>
        <time>2017-06-19T15:47:13Z</time>
      </trkpt>
      <trkpt lat="50.30828" lon="5.13583">
        <ele>283.87162136331</ele>
        <time>2017-06-19T15:47:17Z</time>
      </trkpt>
      <trkpt lat="50.30842" lon="5.13615">
        <ele>284.53350298571</ele>
        <time>2017-06-19T15:47:21Z</time>
      </trkpt>
      <trkpt lat="50.30857" lon="5.13646">
        <ele>285.46002706201</ele>
        <time>2017-06-19T15:47:25Z</time>
      </trkpt>
      <trkpt lat="50.30877" lon="5.13686">
        <ele>286.78340581313</ele>
        <time>2017-06-19T15:47:30Z</time>
      </trkpt>
      <trkpt lat="50.30892" lon="5.13719">
        <ele>287.25442481972</ele>
        <time>2017-06-19T15:47:34Z</time>
      </trkpt>
      <trkpt lat="50.30911" lon="5.13758">
        <ele>288.0905359</ele>
        <time>2017-06-19T15:47:39Z</time>
      </trkpt>
      <trkpt lat="50.30926" lon="5.1379">
        <ele>289.03716394685</ele>
        <time>2017-06-19T15:47:43Z</time>
      </trkpt>
      <trkpt lat="50.30942" lon="5.1382">
        <ele>289.89618689224</ele>
        <time>2017-06-19T15:47:47Z</time>
      </trkpt>
      <trkpt lat="50.30963" lon="5.13853">
        <ele>290.80016535611</ele>
        <time>2017-06-19T15:47:52Z</time>
      </trkpt>
      <trkpt lat="50.30982" lon="5.13882">
        <ele>292.11618922791</ele>
        <time>2017-06-19T15:47:56Z</time>
      </trkpt>
      <trkpt lat="50.31002" lon="5.1391">
        <ele>293.78921927105</ele>
        <time>2017-06-19T15:48:00Z</time>
      </trkpt>
      <trkpt lat="50.31027" lon="5.13947">
        <ele>294.43906324266</ele>
        <time>2017-06-19T15:48:05Z</time>
      </trkpt>
      <trkpt lat="50.31046" lon="5.13975">
        <ele>294.80677765304</ele>
        <time>2017-06-19T15:48:09Z</time>
      </trkpt>
      <trkpt lat="50.31065" lon="5.14006">
        <ele>294.65904787387</ele>
        <time>2017-06-19T15:48:13Z</time>
      </trkpt>
      <trkpt lat="50.31084" lon="5.14036">
        <ele>294.42468176755</ele>
        <time>2017-06-19T15:48:17Z</time>
      </trkpt>
      <trkpt lat="50.31105" lon="5.14073">
        <ele>294.57253080488</ele>
        <time>2017-06-19T15:48:22Z</time>
      </trkpt>
      <trkpt lat="50.31123" lon="5.14113">
        <ele>295.02535146455</ele>
        <time>2017-06-19T15:48:27Z</time>
      </trkpt>
      <trkpt lat="50.31136" lon="5.14147">
        <ele>296.41411419947</ele>
        <time>2017-06-19T15:48:31Z</time>
      </trkpt>
      <trkpt lat="50.31152" lon="5.14195">
        <ele>296.42013520029</ele>
        <time>2017-06-19T15:48:36Z</time>
      </trkpt>
      <trkpt lat="50.31165" lon="5.14231">
        <ele>296.98919176212</ele>
        <time>2017-06-19T15:48:40Z</time>
      </trkpt>
      <trkpt lat="50.31177" lon="5.14267">
        <ele>297.85095113958</ele>
        <time>2017-06-19T15:48:44Z</time>
      </trkpt>
      <trkpt lat="50.31189" lon="5.14297">
        <ele>297.37060949312</ele>
        <time>2017-06-19T15:48:49Z</time>
      </trkpt>
      <trkpt lat="50.31211" lon="5.14353">
        <ele>298.52271165092</ele>
        <time>2017-06-19T15:48:54Z</time>
      </trkpt>
      <trkpt lat="50.31231" lon="5.14408">
        <ele>298.98239697532</ele>
        <time>2017-06-19T15:48:59Z</time>
      </trkpt>
      <trkpt lat="50.31246" lon="5.14447">
        <ele>297.74502883084</ele>
        <time>2017-06-19T15:49:03Z</time>
      </trkpt>
      <trkpt lat="50.31261" lon="5.14493">
        <ele>296.21059759691</ele>
        <time>2017-06-19T15:49:08Z</time>
      </trkpt>
      <trkpt lat="50.31274" lon="5.1453">
        <ele>295.86910838071</ele>
        <time>2017-06-19T15:49:12Z</time>
      </trkpt>
      <trkpt lat="50.31286" lon="5.14566">
        <ele>295.94449432656</ele>
        <time>2017-06-19T15:49:16Z</time>
      </trkpt>
      <trkpt lat="50.31299" lon="5.14607">
        <ele>295.75355198016</ele>
        <time>2017-06-19T15:49:20Z</time>
      </trkpt>
      <trkpt lat="50.31311" lon="5.14647">
        <ele>295.60744453744</ele>
        <time>2017-06-19T15:49:24Z</time>
      </trkpt>
      <trkpt lat="50.31325" lon="5.14694">
        <ele>294.84337058009</ele>
        <time>2017-06-19T15:49:29Z</time>
      </trkpt>
      <trkpt lat="50.31343" lon="5.14739">
        <ele>294.62558529121</ele>
        <time>2017-06-19T15:49:34Z</time>
      </trkpt>
      <trkpt lat="50.31362" lon="5.14769">
        <ele>293.58794726608</ele>
        <time>2017-06-19T15:49:38Z</time>
      </trkpt>
      <trkpt lat="50.31384" lon="5.14797">
        <ele>293.14948784273</ele>
        <time>2017-06-19T15:49:42Z</time>
      </trkpt>
      <trkpt lat="50.31411" lon="5.1483">
        <ele>292.9737376337</ele>
        <time>2017-06-19T15:49:47Z</time>
      </trkpt>
      <trkpt lat="50.31428" lon="5.14861">
        <ele>292.48954999629</ele>
        <time>2017-06-19T15:49:51Z</time>
      </trkpt>
      <trkpt lat="50.31443" lon="5.14893">
        <ele>292.39419838984</ele>
        <time>2017-06-19T15:49:55Z</time>
      </trkpt>
      <trkpt lat="50.31462" lon="5.14933">
        <ele>292.90075539632</ele>
        <time>2017-06-19T15:50:00Z</time>
      </trkpt>
      <trkpt lat="50.31478" lon="5.14965">
        <ele>295.49658661146</ele>
        <time>2017-06-19T15:50:04Z</time>
      </trkpt>
      <trkpt lat="50.31499" lon="5.15005">
        <ele>295.17024967989</ele>
        <time>2017-06-19T15:50:09Z</time>
      </trkpt>
      <trkpt lat="50.31516" lon="5.15038">
        <ele>292.53339532202</ele>
        <time>2017-06-19T15:50:13Z</time>
      </trkpt>
      <trkpt lat="50.3154" lon="5.15073">
        <ele>291.53249766666</ele>
        <time>2017-06-19T15:50:18Z</time>
      </trkpt>
      <trkpt lat="50.31561" lon="5.15103">
        <ele>292.27643811793</ele>
        <time>2017-06-19T15:50:22Z</time>
      </trkpt>
      <trkpt lat="50.31589" lon="5.15141">
        <ele>290.9312241008</ele>
        <time>2017-06-19T15:50:27Z</time>
      </trkpt>
      <trkpt lat="50.3161" lon="5.15173">
        <ele>288.46920527588</ele>
        <time>2017-06-19T15:50:31Z</time>
      </trkpt>
      <trkpt lat="50.31633" lon="5.1521">
        <ele>289.42170337589</ele>
        <time>2017-06-19T15:50:36Z</time>
      </trkpt>
      <trkpt lat="50.31652" lon="5.1524">
        <ele>289.12145678993</ele>
        <time>2017-06-19T15:50:40Z</time>
      </trkpt>
      <trkpt lat="50.31648" lon="5.15267">
        <ele>287.01323438826</ele>
        <time>2017-06-19T15:50:44Z</time>
      </trkpt>
      <trkpt lat="50.31621" lon="5.15278">
        <ele>287.57487253557</ele>
        <time>2017-06-19T15:50:49Z</time>
      </trkpt>
      <trkpt lat="50.31595" lon="5.15289">
        <ele>289.56286815699</ele>
        <time>2017-06-19T15:50:53Z</time>
      </trkpt>
      <trkpt lat="50.31564" lon="5.15304">
        <ele>290.51392194689</ele>
        <time>2017-06-19T15:50:58Z</time>
      </trkpt>
      <trkpt lat="50.3154" lon="5.15315">
        <ele>289.93079990171</ele>
        <time>2017-06-19T15:51:02Z</time>
      </trkpt>
      <trkpt lat="50.31519" lon="5.15327">
        <ele>291.24690059577</ele>
        <time>2017-06-19T15:51:06Z</time>
      </trkpt>
      <trkpt lat="50.31492" lon="5.15342">
        <ele>291.94411659984</ele>
        <time>2017-06-19T15:51:11Z</time>
      </trkpt>
      <trkpt lat="50.31474" lon="5.15355">
        <ele>292.14418715067</ele>
        <time>2017-06-19T15:51:15Z</time>
      </trkpt>
      <trkpt lat="50.31449" lon="5.15372">
        <ele>289.96025158331</ele>
        <time>2017-06-19T15:51:20Z</time>
      </trkpt>
      <trkpt lat="50.31422" lon="5.15388">
        <ele>287.59556280079</ele>
        <time>2017-06-19T15:51:25Z</time>
      </trkpt>
      <trkpt lat="50.31401" lon="5.15401">
        <ele>286.62507328207</ele>
        <time>2017-06-19T15:51:29Z</time>
      </trkpt>
      <trkpt lat="50.31376" lon="5.15415">
        <ele>287.7603795611</ele>
        <time>2017-06-19T15:51:34Z</time>
      </trkpt>
      <trkpt lat="50.31366" lon="5.15444">
        <ele>290.44432169753</ele>
        <time>2017-06-19T15:51:39Z</time>
      </trkpt>
      <trkpt lat="50.31367" lon="5.15478">
        <ele>291.71532436054</ele>
        <time>2017-06-19T15:51:43Z</time>
      </trkpt>
      <trkpt lat="50.3137" lon="5.15529">
        <ele>294.77508913823</ele>
        <time>2017-06-19T15:51:48Z</time>
      </trkpt>
      <trkpt lat="50.31373" lon="5.15567">
        <ele>299.26155011362</ele>
        <time>2017-06-19T15:51:52Z</time>
      </trkpt>
      <trkpt lat="50.31377" lon="5.1561">
        <ele>300.91904728758</ele>
        <time>2017-06-19T15:51:56Z</time>
      </trkpt>
      <trkpt lat="50.3138" lon="5.15661">
        <ele>304.2987851914</ele>
        <time>2017-06-19T15:52:01Z</time>
      </trkpt>
      <trkpt lat="50.31382" lon="5.15703">
        <ele>305.45620104718</ele>
        <time>2017-06-19T15:52:05Z</time>
      </trkpt>
      <trkpt lat="50.31383" lon="5.15744">
        <ele>305.58216952309</ele>
        <time>2017-06-19T15:52:09Z</time>
      </trkpt>
      <trkpt lat="50.31385" lon="5.15785">
        <ele>305.40314641679</ele>
        <time>2017-06-19T15:52:13Z</time>
      </trkpt>
      <trkpt lat="50.31388" lon="5.1584">
        <ele>304.4571299781</ele>
        <time>2017-06-19T15:52:18Z</time>
      </trkpt>
      <trkpt lat="50.31389" lon="5.15881">
        <ele>301.80285660938</ele>
        <time>2017-06-19T15:52:22Z</time>
      </trkpt>
      <trkpt lat="50.31391" lon="5.15923">
        <ele>299.51938859329</ele>
        <time>2017-06-19T15:52:26Z</time>
      </trkpt>
      <trkpt lat="50.31393" lon="5.15972">
        <ele>299.24431701193</ele>
        <time>2017-06-19T15:52:31Z</time>
      </trkpt>
      <trkpt lat="50.31397" lon="5.16008">
        <ele>299.60117976272</ele>
        <time>2017-06-19T15:52:35Z</time>
      </trkpt>
      <trkpt lat="50.31407" lon="5.16052">
        <ele>300.52729380332</ele>
        <time>2017-06-19T15:52:40Z</time>
      </trkpt>
      <trkpt lat="50.31415" lon="5.16087">
        <ele>301.43044375632</ele>
        <time>2017-06-19T15:52:44Z</time>
      </trkpt>
      <trkpt lat="50.31425" lon="5.16131">
        <ele>303.59192039235</ele>
        <time>2017-06-19T15:52:49Z</time>
      </trkpt>
      <trkpt lat="50.31434" lon="5.16168">
        <ele>304.84825799147</ele>
        <time>2017-06-19T15:52:53Z</time>
      </trkpt>
      <trkpt lat="50.31443" lon="5.16207">
        <ele>305.34899829237</ele>
        <time>2017-06-19T15:52:57Z</time>
      </trkpt>
      <trkpt lat="50.31457" lon="5.16256">
        <ele>305.04719896111</ele>
        <time>2017-06-19T15:53:02Z</time>
      </trkpt>
      <trkpt lat="50.31473" lon="5.16301">
        <ele>304.1160871791</ele>
        <time>2017-06-19T15:53:07Z</time>
      </trkpt>
      <trkpt lat="50.31488" lon="5.16334">
        <ele>303.46030726714</ele>
        <time>2017-06-19T15:53:11Z</time>
      </trkpt>
      <trkpt lat="50.31509" lon="5.16374">
        <ele>303.56873513727</ele>
        <time>2017-06-19T15:53:16Z</time>
      </trkpt>
      <trkpt lat="50.31525" lon="5.16406">
        <ele>303.55620339717</ele>
        <time>2017-06-19T15:53:20Z</time>
      </trkpt>
      <trkpt lat="50.31545" lon="5.16448">
        <ele>301.97335949024</ele>
        <time>2017-06-19T15:53:25Z</time>
      </trkpt>
      <trkpt lat="50.31562" lon="5.16483">
        <ele>300.39698677199</ele>
        <time>2017-06-19T15:53:29Z</time>
      </trkpt>
      <trkpt lat="50.31583" lon="5.16526">
        <ele>299.49036264987</ele>
        <time>2017-06-19T15:53:34Z</time>
      </trkpt>
      <trkpt lat="50.31605" lon="5.1657">
        <ele>299.13622886184</ele>
        <time>2017-06-19T15:53:39Z</time>
      </trkpt>
      <trkpt lat="50.31622" lon="5.16603">
        <ele>298.59627965665</ele>
        <time>2017-06-19T15:53:43Z</time>
      </trkpt>
      <trkpt lat="50.31639" lon="5.16636">
        <ele>298.32335535893</ele>
        <time>2017-06-19T15:53:47Z</time>
      </trkpt>
      <trkpt lat="50.31658" lon="5.1667">
        <ele>297.96672049456</ele>
        <time>2017-06-19T15:53:51Z</time>
      </trkpt>
      <trkpt lat="50.31675" lon="5.16706">
        <ele>297.62914715786</ele>
        <time>2017-06-19T15:53:55Z</time>
      </trkpt>
      <trkpt lat="50.31691" lon="5.16742">
        <ele>297.47173843936</ele>
        <time>2017-06-19T15:53:59Z</time>
      </trkpt>
      <trkpt lat="50.31711" lon="5.16789">
        <ele>297.12148207501</ele>
        <time>2017-06-19T15:54:04Z</time>
      </trkpt>
      <trkpt lat="50.31728" lon="5.16826">
        <ele>296.80309309125</ele>
        <time>2017-06-19T15:54:08Z</time>
      </trkpt>
      <trkpt lat="50.31748" lon="5.16875">
        <ele>296.5833278313</ele>
        <time>2017-06-19T15:54:13Z</time>
      </trkpt>
      <trkpt lat="50.31768" lon="5.16924">
        <ele>296.01887555705</ele>
        <time>2017-06-19T15:54:18Z</time>
      </trkpt>
      <trkpt lat="50.31785" lon="5.16966">
        <ele>296.79827044444</ele>
        <time>2017-06-19T15:54:23Z</time>
      </trkpt>
      <trkpt lat="50.31798" lon="5.17001">
        <ele>296.4042015203</ele>
        <time>2017-06-19T15:54:27Z</time>
      </trkpt>
      <trkpt lat="50.31811" lon="5.17034">
        <ele>295.8584851911</ele>
        <time>2017-06-19T15:54:31Z</time>
      </trkpt>
      <trkpt lat="50.31823" lon="5.17065">
        <ele>295.33260409379</ele>
        <time>2017-06-19T15:54:35Z</time>
      </trkpt>
      <trkpt lat="50.31838" lon="5.17103">
        <ele>294.67498941117</ele>
        <time>2017-06-19T15:54:40Z</time>
      </trkpt>
      <trkpt lat="50.31854" lon="5.17144">
        <ele>293.87286198556</ele>
        <time>2017-06-19T15:54:45Z</time>
      </trkpt>
      <trkpt lat="50.31867" lon="5.1718">
        <ele>292.92540797713</ele>
        <time>2017-06-19T15:54:49Z</time>
      </trkpt>
      <trkpt lat="50.31877" lon="5.17236">
        <ele>291.70316397452</ele>
        <time>2017-06-19T15:54:54Z</time>
      </trkpt>
      <trkpt lat="50.31885" lon="5.17288">
        <ele>289.84439061766</ele>
        <time>2017-06-19T15:54:58Z</time>
      </trkpt>
      <trkpt lat="50.31897" lon="5.17359">
        <ele>287.66580616648</ele>
        <time>2017-06-19T15:55:03Z</time>
      </trkpt>
      <trkpt lat="50.31907" lon="5.17419">
        <ele>284.91924796362</ele>
        <time>2017-06-19T15:55:07Z</time>
      </trkpt>
      <trkpt lat="50.31919" lon="5.17482">
        <ele>281.81111274042</ele>
        <time>2017-06-19T15:55:11Z</time>
      </trkpt>
      <trkpt lat="50.31932" lon="5.1756">
        <ele>278.89574524255</ele>
        <time>2017-06-19T15:55:16Z</time>
      </trkpt>
      <trkpt lat="50.31944" lon="5.17621">
        <ele>277.17506150398</ele>
        <time>2017-06-19T15:55:20Z</time>
      </trkpt>
      <trkpt lat="50.31953" lon="5.17678">
        <ele>275.69592714885</ele>
        <time>2017-06-19T15:55:24Z</time>
      </trkpt>
      <trkpt lat="50.31959" lon="5.17751">
        <ele>274.12047362662</ele>
        <time>2017-06-19T15:55:29Z</time>
      </trkpt>
      <trkpt lat="50.31968" lon="5.17824">
        <ele>271.29542944802</ele>
        <time>2017-06-19T15:55:34Z</time>
      </trkpt>
      <trkpt lat="50.31983" lon="5.17874">
        <ele>269.05966828641</ele>
        <time>2017-06-19T15:55:38Z</time>
      </trkpt>
      <trkpt lat="50.32" lon="5.17907">
        <ele>267.51657195696</ele>
        <time>2017-06-19T15:55:42Z</time>
      </trkpt>
      <trkpt lat="50.32027" lon="5.17936">
        <ele>266.25904033468</ele>
        <time>2017-06-19T15:55:47Z</time>
      </trkpt>
      <trkpt lat="50.3204" lon="5.17964">
        <ele>266.64502162226</ele>
        <time>2017-06-19T15:55:51Z</time>
      </trkpt>
      <trkpt lat="50.32035" lon="5.18012">
        <ele>267.03562759267</ele>
        <time>2017-06-19T15:55:56Z</time>
      </trkpt>
      <trkpt lat="50.32032" lon="5.18053">
        <ele>268.3833474725</ele>
        <time>2017-06-19T15:56:00Z</time>
      </trkpt>
      <trkpt lat="50.32029" lon="5.18108">
        <ele>267.93024210696</ele>
        <time>2017-06-19T15:56:05Z</time>
      </trkpt>
      <trkpt lat="50.32024" lon="5.18162">
        <ele>265.8746282305</ele>
        <time>2017-06-19T15:56:10Z</time>
      </trkpt>
      <trkpt lat="50.32016" lon="5.18201">
        <ele>264.68131203508</ele>
        <time>2017-06-19T15:56:14Z</time>
      </trkpt>
      <trkpt lat="50.32012" lon="5.18243">
        <ele>263.83137851383</ele>
        <time>2017-06-19T15:56:19Z</time>
      </trkpt>
      <trkpt lat="50.32028" lon="5.18261">
        <ele>265.03340775198</ele>
        <time>2017-06-19T15:56:23Z</time>
      </trkpt>
      <trkpt lat="50.32051" lon="5.1828">
        <ele>267.17368397165</ele>
        <time>2017-06-19T15:56:28Z</time>
      </trkpt>
      <trkpt lat="50.32052" lon="5.18296">
        <ele>267.11910655808</ele>
        <time>2017-06-19T15:56:32Z</time>
      </trkpt>
      <trkpt lat="50.32033" lon="5.18323">
        <ele>266.29095597631</ele>
        <time>2017-06-19T15:56:37Z</time>
      </trkpt>
      <trkpt lat="50.32016" lon="5.18352">
        <ele>264.80737060994</ele>
        <time>2017-06-19T15:56:41Z</time>
      </trkpt>
      <trkpt lat="50.32001" lon="5.18387">
        <ele>262.840768669</ele>
        <time>2017-06-19T15:56:45Z</time>
      </trkpt>
      <trkpt lat="50.31981" lon="5.18427">
        <ele>261.47336297609</ele>
        <time>2017-06-19T15:56:50Z</time>
      </trkpt>
      <trkpt lat="50.31964" lon="5.18459">
        <ele>261.79466330916</ele>
        <time>2017-06-19T15:56:54Z</time>
      </trkpt>
      <trkpt lat="50.31939" lon="5.18497">
        <ele>263.0443516029</ele>
        <time>2017-06-19T15:56:59Z</time>
      </trkpt>
      <trkpt lat="50.31911" lon="5.18525">
        <ele>264.84609463114</ele>
        <time>2017-06-19T15:57:04Z</time>
      </trkpt>
      <trkpt lat="50.31886" lon="5.18558">
        <ele>267.76136930473</ele>
        <time>2017-06-19T15:57:09Z</time>
      </trkpt>
      <trkpt lat="50.31865" lon="5.18598">
        <ele>271.0125919072</ele>
        <time>2017-06-19T15:57:14Z</time>
      </trkpt>
      <trkpt lat="50.31852" lon="5.18639">
        <ele>273.22825261237</ele>
        <time>2017-06-19T15:57:18Z</time>
      </trkpt>
      <trkpt lat="50.31848" lon="5.18688">
        <ele>277.99684690812</ele>
        <time>2017-06-19T15:57:23Z</time>
      </trkpt>
      <trkpt lat="50.31854" lon="5.18734">
        <ele>280.10633522795</ele>
        <time>2017-06-19T15:57:27Z</time>
      </trkpt>
      <trkpt lat="50.31861" lon="5.18776">
        <ele>282.81688801915</ele>
        <time>2017-06-19T15:57:31Z</time>
      </trkpt>
      <trkpt lat="50.31871" lon="5.18814">
        <ele>282.39770792709</ele>
        <time>2017-06-19T15:57:35Z</time>
      </trkpt>
      <trkpt lat="50.31887" lon="5.18869">
        <ele>279.04760355515</ele>
        <time>2017-06-19T15:57:40Z</time>
      </trkpt>
      <trkpt lat="50.31901" lon="5.18917">
        <ele>277.43845040571</ele>
        <time>2017-06-19T15:57:45Z</time>
      </trkpt>
      <trkpt lat="50.31906" lon="5.1896">
        <ele>276.80957631903</ele>
        <time>2017-06-19T15:57:49Z</time>
      </trkpt>
      <trkpt lat="50.31907" lon="5.19005">
        <ele>275.01904194419</ele>
        <time>2017-06-19T15:57:53Z</time>
      </trkpt>
      <trkpt lat="50.31904" lon="5.19062">
        <ele>273.10969897413</ele>
        <time>2017-06-19T15:57:58Z</time>
      </trkpt>
      <trkpt lat="50.31898" lon="5.19105">
        <ele>272.34697859559</ele>
        <time>2017-06-19T15:58:02Z</time>
      </trkpt>
      <trkpt lat="50.31881" lon="5.19149">
        <ele>270.208798789</ele>
        <time>2017-06-19T15:58:07Z</time>
      </trkpt>
      <trkpt lat="50.31862" lon="5.19179">
        <ele>270.12887273209</ele>
        <time>2017-06-19T15:58:11Z</time>
      </trkpt>
      <trkpt lat="50.31839" lon="5.1921">
        <ele>271.91487702924</ele>
        <time>2017-06-19T15:58:16Z</time>
      </trkpt>
      <trkpt lat="50.31822" lon="5.19234">
        <ele>272.85074775098</ele>
        <time>2017-06-19T15:58:20Z</time>
      </trkpt>
      <trkpt lat="50.31813" lon="5.19272">
        <ele>273.20169061951</ele>
        <time>2017-06-19T15:58:25Z</time>
      </trkpt>
      <trkpt lat="50.31815" lon="5.19302">
        <ele>274.1775000474</ele>
        <time>2017-06-19T15:58:29Z</time>
      </trkpt>
      <trkpt lat="50.31823" lon="5.19335">
        <ele>276.1594536486</ele>
        <time>2017-06-19T15:58:33Z</time>
      </trkpt>
      <trkpt lat="50.31841" lon="5.19374">
        <ele>280.24016106379</ele>
        <time>2017-06-19T15:58:38Z</time>
      </trkpt>
      <trkpt lat="50.31856" lon="5.19402">
        <ele>281.87010218692</ele>
        <time>2017-06-19T15:58:42Z</time>
      </trkpt>
      <trkpt lat="50.3187" lon="5.19431">
        <ele>282.5743300538</ele>
        <time>2017-06-19T15:58:46Z</time>
      </trkpt>
      <trkpt lat="50.31881" lon="5.19457">
        <ele>283.03338883878</ele>
        <time>2017-06-19T15:58:50Z</time>
      </trkpt>
      <trkpt lat="50.31895" lon="5.19489">
        <ele>284.36444269309</ele>
        <time>2017-06-19T15:58:55Z</time>
      </trkpt>
      <trkpt lat="50.31909" lon="5.19516">
        <ele>284.79871004868</ele>
        <time>2017-06-19T15:58:59Z</time>
      </trkpt>
      <trkpt lat="50.31921" lon="5.19541">
        <ele>285.92660655939</ele>
        <time>2017-06-19T15:59:03Z</time>
      </trkpt>
      <trkpt lat="50.31932" lon="5.19579">
        <ele>286.38435745812</ele>
        <time>2017-06-19T15:59:08Z</time>
      </trkpt>
      <trkpt lat="50.31942" lon="5.19617">
        <ele>286.45484842867</ele>
        <time>2017-06-19T15:59:13Z</time>
      </trkpt>
      <trkpt lat="50.31945" lon="5.19652">
        <ele>285.82765772349</ele>
        <time>2017-06-19T15:59:17Z</time>
      </trkpt>
      <trkpt lat="50.31944" lon="5.19691">
        <ele>285.79103743225</ele>
        <time>2017-06-19T15:59:22Z</time>
      </trkpt>
      <trkpt lat="50.31946" lon="5.19725">
        <ele>287.30399245386</ele>
        <time>2017-06-19T15:59:26Z</time>
      </trkpt>
      <trkpt lat="50.31953" lon="5.19761">
        <ele>289.69234717418</ele>
        <time>2017-06-19T15:59:31Z</time>
      </trkpt>
      <trkpt lat="50.31962" lon="5.19789">
        <ele>291.85780877912</ele>
        <time>2017-06-19T15:59:35Z</time>
      </trkpt>
      <trkpt lat="50.31975" lon="5.19822">
        <ele>294.8464951897</ele>
        <time>2017-06-19T15:59:40Z</time>
      </trkpt>
      <trkpt lat="50.31986" lon="5.1985">
        <ele>296.87480746826</ele>
        <time>2017-06-19T15:59:44Z</time>
      </trkpt>
      <trkpt lat="50.31999" lon="5.1988">
        <ele>298.63648481351</ele>
        <time>2017-06-19T15:59:48Z</time>
      </trkpt>
      <trkpt lat="50.32013" lon="5.19909">
        <ele>299.21077561665</ele>
        <time>2017-06-19T15:59:52Z</time>
      </trkpt>
      <trkpt lat="50.32029" lon="5.19935">
        <ele>300.18869722762</ele>
        <time>2017-06-19T15:59:56Z</time>
      </trkpt>
      <trkpt lat="50.3205" lon="5.19971">
        <ele>300.44493030605</ele>
        <time>2017-06-19T16:00:01Z</time>
      </trkpt>
      <trkpt lat="50.32066" lon="5.2">
        <ele>301.43644366591</ele>
        <time>2017-06-19T16:00:05Z</time>
      </trkpt>
      <trkpt lat="50.32084" lon="5.20031">
        <ele>303.44801401281</ele>
        <time>2017-06-19T16:00:09Z</time>
      </trkpt>
      <trkpt lat="50.32104" lon="5.20068">
        <ele>304.95438779203</ele>
        <time>2017-06-19T16:00:14Z</time>
      </trkpt>
      <trkpt lat="50.3212" lon="5.20098">
        <ele>305.35608079376</ele>
        <time>2017-06-19T16:00:18Z</time>
      </trkpt>
      <trkpt lat="50.32141" lon="5.20135">
        <ele>304.82746303774</ele>
        <time>2017-06-19T16:00:23Z</time>
      </trkpt>
      <trkpt lat="50.32158" lon="5.20165">
        <ele>304.53699217096</ele>
        <time>2017-06-19T16:00:27Z</time>
      </trkpt>
      <trkpt lat="50.32174" lon="5.20196">
        <ele>305.58433441244</ele>
        <time>2017-06-19T16:00:31Z</time>
      </trkpt>
      <trkpt lat="50.3219" lon="5.20226">
        <ele>306.24167865842</ele>
        <time>2017-06-19T16:00:35Z</time>
      </trkpt>
      <trkpt lat="50.32205" lon="5.20255">
        <ele>307.04585008137</ele>
        <time>2017-06-19T16:00:39Z</time>
      </trkpt>
      <trkpt lat="50.32225" lon="5.20295">
        <ele>307.35565845194</ele>
        <time>2017-06-19T16:00:44Z</time>
      </trkpt>
      <trkpt lat="50.32238" lon="5.20323">
        <ele>308.27292255944</ele>
        <time>2017-06-19T16:00:48Z</time>
      </trkpt>
      <trkpt lat="50.32253" lon="5.20352">
        <ele>309.82639767589</ele>
        <time>2017-06-19T16:00:52Z</time>
      </trkpt>
      <trkpt lat="50.32272" lon="5.20389">
        <ele>311.91091422995</ele>
        <time>2017-06-19T16:00:57Z</time>
      </trkpt>
      <trkpt lat="50.3229" lon="5.20417">
        <ele>314.6918622929</ele>
        <time>2017-06-19T16:01:01Z</time>
      </trkpt>
      <trkpt lat="50.32309" lon="5.20448">
        <ele>318.24135316167</ele>
        <time>2017-06-19T16:01:06Z</time>
      </trkpt>
      <trkpt lat="50.32328" lon="5.20481">
        <ele>321.36230090489</ele>
        <time>2017-06-19T16:01:10Z</time>
      </trkpt>
      <trkpt lat="50.32344" lon="5.2051">
        <ele>323.96240581966</ele>
        <time>2017-06-19T16:01:14Z</time>
      </trkpt>
      <trkpt lat="50.32361" lon="5.2054">
        <ele>325.5765744499</ele>
        <time>2017-06-19T16:01:18Z</time>
      </trkpt>
      <trkpt lat="50.32382" lon="5.20582">
        <ele>319.59762706191</ele>
        <time>2017-06-19T16:01:22Z</time>
      </trkpt>
      <trkpt lat="50.324" lon="5.2062">
        <ele>316.21394985188</ele>
        <time>2017-06-19T16:01:27Z</time>
      </trkpt>
      <trkpt lat="50.32416" lon="5.20647">
        <ele>318.25360637785</ele>
        <time>2017-06-19T16:01:31Z</time>
      </trkpt>
      <trkpt lat="50.32432" lon="5.20676">
        <ele>322.35436264079</ele>
        <time>2017-06-19T16:01:35Z</time>
      </trkpt>
      <trkpt lat="50.3245" lon="5.20705">
        <ele>325.88495831</ele>
        <time>2017-06-19T16:01:39Z</time>
      </trkpt>
      <trkpt lat="50.32468" lon="5.20736">
        <ele>327.73427308955</ele>
        <time>2017-06-19T16:01:43Z</time>
      </trkpt>
      <trkpt lat="50.32489" lon="5.20772">
        <ele>330.16061898772</ele>
        <time>2017-06-19T16:01:48Z</time>
      </trkpt>
      <trkpt lat="50.32507" lon="5.208">
        <ele>332.07004457244</ele>
        <time>2017-06-19T16:01:52Z</time>
      </trkpt>
      <trkpt lat="50.32525" lon="5.20829">
        <ele>333.55519528131</ele>
        <time>2017-06-19T16:01:56Z</time>
      </trkpt>
      <trkpt lat="50.32545" lon="5.20864">
        <ele>335.32480442782</ele>
        <time>2017-06-19T16:02:01Z</time>
      </trkpt>
      <trkpt lat="50.32564" lon="5.20903">
        <ele>333.84706478053</ele>
        <time>2017-06-19T16:02:05Z</time>
      </trkpt>
      <trkpt lat="50.32591" lon="5.20952">
        <ele>330.89071113654</ele>
        <time>2017-06-19T16:02:10Z</time>
      </trkpt>
      <trkpt lat="50.32609" lon="5.20982">
        <ele>328.85743989149</ele>
        <time>2017-06-19T16:02:14Z</time>
      </trkpt>
      <trkpt lat="50.32633" lon="5.21017">
        <ele>326.85157547282</ele>
        <time>2017-06-19T16:02:19Z</time>
      </trkpt>
      <trkpt lat="50.32652" lon="5.21047">
        <ele>324.96519763808</ele>
        <time>2017-06-19T16:02:23Z</time>
      </trkpt>
      <trkpt lat="50.32674" lon="5.21084">
        <ele>323.54974142537</ele>
        <time>2017-06-19T16:02:28Z</time>
      </trkpt>
      <trkpt lat="50.32692" lon="5.21112">
        <ele>323.16911275893</ele>
        <time>2017-06-19T16:02:32Z</time>
      </trkpt>
      <trkpt lat="50.3271" lon="5.2114">
        <ele>322.4076782968</ele>
        <time>2017-06-19T16:02:36Z</time>
      </trkpt>
      <trkpt lat="50.32732" lon="5.21175">
        <ele>322.21113893618</ele>
        <time>2017-06-19T16:02:41Z</time>
      </trkpt>
      <trkpt lat="50.3275" lon="5.21205">
        <ele>321.57128587165</ele>
        <time>2017-06-19T16:02:45Z</time>
      </trkpt>
      <trkpt lat="50.32772" lon="5.21242">
        <ele>321.08670184077</ele>
        <time>2017-06-19T16:02:50Z</time>
      </trkpt>
      <trkpt lat="50.32797" lon="5.21278">
        <ele>322.29115805673</ele>
        <time>2017-06-19T16:02:55Z</time>
      </trkpt>
      <trkpt lat="50.32816" lon="5.21306">
        <ele>322.98178049459</ele>
        <time>2017-06-19T16:02:59Z</time>
      </trkpt>
      <trkpt lat="50.32835" lon="5.21338">
        <ele>322.33696529347</ele>
        <time>2017-06-19T16:03:03Z</time>
      </trkpt>
      <trkpt lat="50.32857" lon="5.21376">
        <ele>321.5691514434</ele>
        <time>2017-06-19T16:03:08Z</time>
      </trkpt>
      <trkpt lat="50.32876" lon="5.21405">
        <ele>321.33321947884</ele>
        <time>2017-06-19T16:03:12Z</time>
      </trkpt>
      <trkpt lat="50.32899" lon="5.2144">
        <ele>321.98640496642</ele>
        <time>2017-06-19T16:03:17Z</time>
      </trkpt>
      <trkpt lat="50.32923" lon="5.21476">
        <ele>323.0649099487</ele>
        <time>2017-06-19T16:03:22Z</time>
      </trkpt>
      <trkpt lat="50.32941" lon="5.21504">
        <ele>323.6560409112</ele>
        <time>2017-06-19T16:03:26Z</time>
      </trkpt>
      <trkpt lat="50.32964" lon="5.2154">
        <ele>324.02425986972</ele>
        <time>2017-06-19T16:03:31Z</time>
      </trkpt>
      <trkpt lat="50.32983" lon="5.21569">
        <ele>324.67725103989</ele>
        <time>2017-06-19T16:03:35Z</time>
      </trkpt>
      <trkpt lat="50.33001" lon="5.21598">
        <ele>325.36725198227</ele>
        <time>2017-06-19T16:03:39Z</time>
      </trkpt>
      <trkpt lat="50.3302" lon="5.21629">
        <ele>327.39938256353</ele>
        <time>2017-06-19T16:03:44Z</time>
      </trkpt>
      <trkpt lat="50.33034" lon="5.2165">
        <ele>328.02081761485</ele>
        <time>2017-06-19T16:03:48Z</time>
      </trkpt>
      <trkpt lat="50.33057" lon="5.2169">
        <ele>329.62371807786</ele>
        <time>2017-06-19T16:03:53Z</time>
      </trkpt>
      <trkpt lat="50.33076" lon="5.21721">
        <ele>329.72259946702</ele>
        <time>2017-06-19T16:03:57Z</time>
      </trkpt>
      <trkpt lat="50.33098" lon="5.21758">
        <ele>329.41745280257</ele>
        <time>2017-06-19T16:04:02Z</time>
      </trkpt>
      <trkpt lat="50.33118" lon="5.21801">
        <ele>329.11061775889</ele>
        <time>2017-06-19T16:04:07Z</time>
      </trkpt>
      <trkpt lat="50.33128" lon="5.21829">
        <ele>330.69044612066</ele>
        <time>2017-06-19T16:04:11Z</time>
      </trkpt>
      <trkpt lat="50.33143" lon="5.21872">
        <ele>332.35982340697</ele>
        <time>2017-06-19T16:04:16Z</time>
      </trkpt>
      <trkpt lat="50.33156" lon="5.21907">
        <ele>333.94789850207</ele>
        <time>2017-06-19T16:04:20Z</time>
      </trkpt>
      <trkpt lat="50.33173" lon="5.21953">
        <ele>336.54000492954</ele>
        <time>2017-06-19T16:04:25Z</time>
      </trkpt>
      <trkpt lat="50.33185" lon="5.21991">
        <ele>338.68605794555</ele>
        <time>2017-06-19T16:04:29Z</time>
      </trkpt>
      <trkpt lat="50.33202" lon="5.22041">
        <ele>337.84085886416</ele>
        <time>2017-06-19T16:04:34Z</time>
      </trkpt>
      <trkpt lat="50.33214" lon="5.22084">
        <ele>334.76513993188</ele>
        <time>2017-06-19T16:04:38Z</time>
      </trkpt>
      <trkpt lat="50.33229" lon="5.22138">
        <ele>331.25154572634</ele>
        <time>2017-06-19T16:04:43Z</time>
      </trkpt>
      <trkpt lat="50.3324" lon="5.22185">
        <ele>335.88608566556</ele>
        <time>2017-06-19T16:04:48Z</time>
      </trkpt>
      <trkpt lat="50.33249" lon="5.22222">
        <ele>338.95752589911</ele>
        <time>2017-06-19T16:04:52Z</time>
      </trkpt>
      <trkpt lat="50.33259" lon="5.22266">
        <ele>341.74465357877</ele>
        <time>2017-06-19T16:04:57Z</time>
      </trkpt>
      <trkpt lat="50.33271" lon="5.22312">
        <ele>339.81224915428</ele>
        <time>2017-06-19T16:05:02Z</time>
      </trkpt>
      <trkpt lat="50.33281" lon="5.2235">
        <ele>337.57586088772</ele>
        <time>2017-06-19T16:05:06Z</time>
      </trkpt>
      <trkpt lat="50.33292" lon="5.22406">
        <ele>336.85023264917</ele>
        <time>2017-06-19T16:05:11Z</time>
      </trkpt>
      <trkpt lat="50.33297" lon="5.22453">
        <ele>337.92371197424</ele>
        <time>2017-06-19T16:05:15Z</time>
      </trkpt>
      <trkpt lat="50.33297" lon="5.22507">
        <ele>336.73511767708</ele>
        <time>2017-06-19T16:05:20Z</time>
      </trkpt>
      <trkpt lat="50.33297" lon="5.22547">
        <ele>334.65824481011</ele>
        <time>2017-06-19T16:05:24Z</time>
      </trkpt>
      <trkpt lat="50.33298" lon="5.22598">
        <ele>333.24398441187</ele>
        <time>2017-06-19T16:05:29Z</time>
      </trkpt>
      <trkpt lat="50.33297" lon="5.22657">
        <ele>330.78543515837</ele>
        <time>2017-06-19T16:05:33Z</time>
      </trkpt>
      <trkpt lat="50.33292" lon="5.22717">
        <ele>327.19748189615</ele>
        <time>2017-06-19T16:05:38Z</time>
      </trkpt>
      <trkpt lat="50.33291" lon="5.22778">
        <ele>332.16067869899</ele>
        <time>2017-06-19T16:05:43Z</time>
      </trkpt>
      <trkpt lat="50.33293" lon="5.22824">
        <ele>330.72108484806</ele>
        <time>2017-06-19T16:05:47Z</time>
      </trkpt>
      <trkpt lat="50.3329" lon="5.22874">
        <ele>324.56712355201</ele>
        <time>2017-06-19T16:05:52Z</time>
      </trkpt>
      <trkpt lat="50.33293" lon="5.22908">
        <ele>321.64242133761</ele>
        <time>2017-06-19T16:05:56Z</time>
      </trkpt>
      <trkpt lat="50.33297" lon="5.22956">
        <ele>321.66267873342</ele>
        <time>2017-06-19T16:06:01Z</time>
      </trkpt>
      <trkpt lat="50.33299" lon="5.22996">
        <ele>321.55969512578</ele>
        <time>2017-06-19T16:06:05Z</time>
      </trkpt>
      <trkpt lat="50.33303" lon="5.23047">
        <ele>321.67270712187</ele>
        <time>2017-06-19T16:06:10Z</time>
      </trkpt>
      <trkpt lat="50.33313" lon="5.23096">
        <ele>323.3454616511</ele>
        <time>2017-06-19T16:06:15Z</time>
      </trkpt>
      <trkpt lat="50.33322" lon="5.23137">
        <ele>323.36061421097</ele>
        <time>2017-06-19T16:06:19Z</time>
      </trkpt>
      <trkpt lat="50.33331" lon="5.23176">
        <ele>323.64786864757</ele>
        <time>2017-06-19T16:06:23Z</time>
      </trkpt>
      <trkpt lat="50.33341" lon="5.23226">
        <ele>325.15106113697</ele>
        <time>2017-06-19T16:06:28Z</time>
      </trkpt>
      <trkpt lat="50.33357" lon="5.23274">
        <ele>325.73359131343</ele>
        <time>2017-06-19T16:06:33Z</time>
      </trkpt>
      <trkpt lat="50.33377" lon="5.23301">
        <ele>324.72135980172</ele>
        <time>2017-06-19T16:06:37Z</time>
      </trkpt>
      <trkpt lat="50.3341" lon="5.2333">
        <ele>323.60851312769</ele>
        <time>2017-06-19T16:06:42Z</time>
      </trkpt>
      <trkpt lat="50.33435" lon="5.23355">
        <ele>322.82231932216</ele>
        <time>2017-06-19T16:06:46Z</time>
      </trkpt>
      <trkpt lat="50.33461" lon="5.23389">
        <ele>323.97256824919</ele>
        <time>2017-06-19T16:06:51Z</time>
      </trkpt>
      <trkpt lat="50.33484" lon="5.23427">
        <ele>322.4852930536</ele>
        <time>2017-06-19T16:06:56Z</time>
      </trkpt>
      <trkpt lat="50.33505" lon="5.23454">
        <ele>321.63605068344</ele>
        <time>2017-06-19T16:07:00Z</time>
      </trkpt>
      <trkpt lat="50.33526" lon="5.23479">
        <ele>322.68134545074</ele>
        <time>2017-06-19T16:07:04Z</time>
      </trkpt>
      <trkpt lat="50.33547" lon="5.23504">
        <ele>323.40844055437</ele>
        <time>2017-06-19T16:07:08Z</time>
      </trkpt>
      <trkpt lat="50.33575" lon="5.23538">
        <ele>323.2487375079</ele>
        <time>2017-06-19T16:07:13Z</time>
      </trkpt>
      <trkpt lat="50.33596" lon="5.23565">
        <ele>322.253358298</ele>
        <time>2017-06-19T16:07:17Z</time>
      </trkpt>
      <trkpt lat="50.33617" lon="5.23591">
        <ele>321.7875412263</ele>
        <time>2017-06-19T16:07:21Z</time>
      </trkpt>
      <trkpt lat="50.33643" lon="5.23623">
        <ele>321.188217097</ele>
        <time>2017-06-19T16:07:26Z</time>
      </trkpt>
      <trkpt lat="50.33665" lon="5.23647">
        <ele>321.94466623418</ele>
        <time>2017-06-19T16:07:30Z</time>
      </trkpt>
      <trkpt lat="50.3369" lon="5.23683">
        <ele>324.19214860812</ele>
        <time>2017-06-19T16:07:35Z</time>
      </trkpt>
      <trkpt lat="50.33708" lon="5.23716">
        <ele>325.37896141902</ele>
        <time>2017-06-19T16:07:39Z</time>
      </trkpt>
      <trkpt lat="50.3373" lon="5.23756">
        <ele>327.13814055556</ele>
        <time>2017-06-19T16:07:44Z</time>
      </trkpt>
      <trkpt lat="50.33749" lon="5.238">
        <ele>325.96370079771</ele>
        <time>2017-06-19T16:07:49Z</time>
      </trkpt>
      <trkpt lat="50.33764" lon="5.23833">
        <ele>327.07743844637</ele>
        <time>2017-06-19T16:07:53Z</time>
      </trkpt>
      <trkpt lat="50.33783" lon="5.23867">
        <ele>327.52007422705</ele>
        <time>2017-06-19T16:07:57Z</time>
      </trkpt>
      <trkpt lat="50.33801" lon="5.23898">
        <ele>326.46804119948</ele>
        <time>2017-06-19T16:08:01Z</time>
      </trkpt>
      <trkpt lat="50.33822" lon="5.23929">
        <ele>326.09299848023</ele>
        <time>2017-06-19T16:08:05Z</time>
      </trkpt>
      <trkpt lat="50.3384" lon="5.23955">
        <ele>326.33919412251</ele>
        <time>2017-06-19T16:08:09Z</time>
      </trkpt>
      <trkpt lat="50.33865" lon="5.2399">
        <ele>324.95936557472</ele>
        <time>2017-06-19T16:08:14Z</time>
      </trkpt>
      <trkpt lat="50.3389" lon="5.24025">
        <ele>324.6577051895</ele>
        <time>2017-06-19T16:08:19Z</time>
      </trkpt>
      <trkpt lat="50.33914" lon="5.2406">
        <ele>325.23432782627</ele>
        <time>2017-06-19T16:08:24Z</time>
      </trkpt>
      <trkpt lat="50.33932" lon="5.24088">
        <ele>325.77178210619</ele>
        <time>2017-06-19T16:08:28Z</time>
      </trkpt>
      <trkpt lat="50.33951" lon="5.24114">
        <ele>327.44554934744</ele>
        <time>2017-06-19T16:08:32Z</time>
      </trkpt>
      <trkpt lat="50.33969" lon="5.24141">
        <ele>329.31965974838</ele>
        <time>2017-06-19T16:08:36Z</time>
      </trkpt>
      <trkpt lat="50.33992" lon="5.24179">
        <ele>330.567667301</ele>
        <time>2017-06-19T16:08:41Z</time>
      </trkpt>
      <trkpt lat="50.34006" lon="5.24204">
        <ele>330.46482030296</ele>
        <time>2017-06-19T16:08:45Z</time>
      </trkpt>
      <trkpt lat="50.34025" lon="5.24235">
        <ele>331.49103335785</ele>
        <time>2017-06-19T16:08:50Z</time>
      </trkpt>
      <trkpt lat="50.34048" lon="5.24271">
        <ele>331.70586854974</ele>
        <time>2017-06-19T16:08:55Z</time>
      </trkpt>
      <trkpt lat="50.34066" lon="5.24301">
        <ele>331.1339935864</ele>
        <time>2017-06-19T16:08:59Z</time>
      </trkpt>
      <trkpt lat="50.34084" lon="5.24332">
        <ele>330.38754475254</ele>
        <time>2017-06-19T16:09:03Z</time>
      </trkpt>
      <trkpt lat="50.34102" lon="5.24362">
        <ele>330.00243416681</ele>
        <time>2017-06-19T16:09:07Z</time>
      </trkpt>
      <trkpt lat="50.34123" lon="5.244">
        <ele>329.86037691312</ele>
        <time>2017-06-19T16:09:12Z</time>
      </trkpt>
      <trkpt lat="50.34139" lon="5.24432">
        <ele>330.64900706746</ele>
        <time>2017-06-19T16:09:16Z</time>
      </trkpt>
      <trkpt lat="50.34156" lon="5.24465">
        <ele>331.29627163168</ele>
        <time>2017-06-19T16:09:20Z</time>
      </trkpt>
      <trkpt lat="50.34177" lon="5.24503">
        <ele>330.81339144986</ele>
        <time>2017-06-19T16:09:25Z</time>
      </trkpt>
      <trkpt lat="50.34194" lon="5.24533">
        <ele>331.15378507313</ele>
        <time>2017-06-19T16:09:29Z</time>
      </trkpt>
      <trkpt lat="50.34216" lon="5.24575">
        <ele>330.09426182974</ele>
        <time>2017-06-19T16:09:34Z</time>
      </trkpt>
      <trkpt lat="50.34231" lon="5.24617">
        <ele>327.74941858177</ele>
        <time>2017-06-19T16:09:38Z</time>
      </trkpt>
      <trkpt lat="50.34245" lon="5.2466">
        <ele>325.94149285522</ele>
        <time>2017-06-19T16:09:42Z</time>
      </trkpt>
      <trkpt lat="50.34257" lon="5.247">
        <ele>324.49411015303</ele>
        <time>2017-06-19T16:09:46Z</time>
      </trkpt>
      <trkpt lat="50.34269" lon="5.24739">
        <ele>323.46662402967</ele>
        <time>2017-06-19T16:09:50Z</time>
      </trkpt>
      <trkpt lat="50.34272" lon="5.24798">
        <ele>321.40184224869</ele>
        <time>2017-06-19T16:09:55Z</time>
      </trkpt>
      <trkpt lat="50.34267" lon="5.24858">
        <ele>322.37284432538</ele>
        <time>2017-06-19T16:10:00Z</time>
      </trkpt>
      <trkpt lat="50.34277" lon="5.249">
        <ele>323.53785644106</ele>
        <time>2017-06-19T16:10:04Z</time>
      </trkpt>
      <trkpt lat="50.34304" lon="5.24936">
        <ele>321.5570211719</ele>
        <time>2017-06-19T16:10:09Z</time>
      </trkpt>
      <trkpt lat="50.34328" lon="5.24958">
        <ele>319.87958416315</ele>
        <time>2017-06-19T16:10:13Z</time>
      </trkpt>
      <trkpt lat="50.34351" lon="5.24984">
        <ele>319.2054956069</ele>
        <time>2017-06-19T16:10:17Z</time>
      </trkpt>
      <trkpt lat="50.34374" lon="5.2502">
        <ele>319.07228165032</ele>
        <time>2017-06-19T16:10:22Z</time>
      </trkpt>
      <trkpt lat="50.34398" lon="5.25056">
        <ele>319.46572307734</ele>
        <time>2017-06-19T16:10:27Z</time>
      </trkpt>
      <trkpt lat="50.34418" lon="5.25086">
        <ele>319.24873313516</ele>
        <time>2017-06-19T16:10:31Z</time>
      </trkpt>
      <trkpt lat="50.34437" lon="5.25115">
        <ele>319.2814876415</ele>
        <time>2017-06-19T16:10:35Z</time>
      </trkpt>
      <trkpt lat="50.34456" lon="5.25146">
        <ele>318.94169406837</ele>
        <time>2017-06-19T16:10:39Z</time>
      </trkpt>
      <trkpt lat="50.34477" lon="5.25186">
        <ele>319.27116657698</ele>
        <time>2017-06-19T16:10:44Z</time>
      </trkpt>
      <trkpt lat="50.34495" lon="5.25218">
        <ele>319.90161932822</ele>
        <time>2017-06-19T16:10:48Z</time>
      </trkpt>
      <trkpt lat="50.34519" lon="5.2525">
        <ele>321.00165636042</ele>
        <time>2017-06-19T16:10:53Z</time>
      </trkpt>
      <trkpt lat="50.34538" lon="5.25276">
        <ele>321.68735676169</ele>
        <time>2017-06-19T16:10:57Z</time>
      </trkpt>
      <trkpt lat="50.34561" lon="5.25308">
        <ele>322.35966049581</ele>
        <time>2017-06-19T16:11:02Z</time>
      </trkpt>
      <trkpt lat="50.3458" lon="5.25333">
        <ele>323.06989870883</ele>
        <time>2017-06-19T16:11:06Z</time>
      </trkpt>
      <trkpt lat="50.34606" lon="5.25362">
        <ele>323.74891419151</ele>
        <time>2017-06-19T16:11:11Z</time>
      </trkpt>
      <trkpt lat="50.34625" lon="5.25384">
        <ele>324.79034411584</ele>
        <time>2017-06-19T16:11:15Z</time>
      </trkpt>
      <trkpt lat="50.34652" lon="5.25416">
        <ele>324.53606677019</ele>
        <time>2017-06-19T16:11:20Z</time>
      </trkpt>
      <trkpt lat="50.34677" lon="5.25456">
        <ele>323.9904934142</ele>
        <time>2017-06-19T16:11:25Z</time>
      </trkpt>
      <trkpt lat="50.34701" lon="5.25498">
        <ele>323.65525969286</ele>
        <time>2017-06-19T16:11:30Z</time>
      </trkpt>
      <trkpt lat="50.34721" lon="5.25533">
        <ele>324.51391793909</ele>
        <time>2017-06-19T16:11:35Z</time>
      </trkpt>
      <trkpt lat="50.34737" lon="5.25556">
        <ele>326.25311467531</ele>
        <time>2017-06-19T16:11:39Z</time>
      </trkpt>
      <trkpt lat="50.34754" lon="5.25585">
        <ele>327.79930092061</ele>
        <time>2017-06-19T16:11:44Z</time>
      </trkpt>
      <trkpt lat="50.34768" lon="5.25611">
        <ele>327.41350770609</ele>
        <time>2017-06-19T16:11:48Z</time>
      </trkpt>
      <trkpt lat="50.34783" lon="5.25638">
        <ele>327.06494284545</ele>
        <time>2017-06-19T16:11:53Z</time>
      </trkpt>
      <trkpt lat="50.34795" lon="5.25664">
        <ele>325.86944934018</ele>
        <time>2017-06-19T16:11:58Z</time>
      </trkpt>
      <trkpt lat="50.34805" lon="5.25694">
        <ele>325.13978442638</ele>
        <time>2017-06-19T16:12:03Z</time>
      </trkpt>
      <trkpt lat="50.34815" lon="5.2574">
        <ele>325.45536544042</ele>
        <time>2017-06-19T16:12:08Z</time>
      </trkpt>
      <trkpt lat="50.34822" lon="5.25783">
        <ele>325.85878993381</ele>
        <time>2017-06-19T16:12:12Z</time>
      </trkpt>
      <trkpt lat="50.3483" lon="5.25834">
        <ele>326.94049476818</ele>
        <time>2017-06-19T16:12:17Z</time>
      </trkpt>
      <trkpt lat="50.34841" lon="5.25882">
        <ele>324.45504924611</ele>
        <time>2017-06-19T16:12:22Z</time>
      </trkpt>
      <trkpt lat="50.34854" lon="5.25933">
        <ele>321.50920266956</ele>
        <time>2017-06-19T16:12:27Z</time>
      </trkpt>
      <trkpt lat="50.34862" lon="5.25967">
        <ele>319.79892515528</ele>
        <time>2017-06-19T16:12:31Z</time>
      </trkpt>
      <trkpt lat="50.3487" lon="5.26002">
        <ele>319.61788621575</ele>
        <time>2017-06-19T16:12:35Z</time>
      </trkpt>
      <trkpt lat="50.3488" lon="5.26037">
        <ele>318.95722872224</ele>
        <time>2017-06-19T16:12:39Z</time>
      </trkpt>
      <trkpt lat="50.34892" lon="5.26072">
        <ele>317.92251779386</ele>
        <time>2017-06-19T16:12:43Z</time>
      </trkpt>
      <trkpt lat="50.34905" lon="5.26111">
        <ele>318.99323533673</ele>
        <time>2017-06-19T16:12:47Z</time>
      </trkpt>
      <trkpt lat="50.34914" lon="5.26149">
        <ele>318.90293179002</ele>
        <time>2017-06-19T16:12:51Z</time>
      </trkpt>
      <trkpt lat="50.34926" lon="5.26187">
        <ele>318.37050264194</ele>
        <time>2017-06-19T16:12:55Z</time>
      </trkpt>
      <trkpt lat="50.34942" lon="5.26228">
        <ele>317.35655259123</ele>
        <time>2017-06-19T16:13:00Z</time>
      </trkpt>
      <trkpt lat="50.34956" lon="5.26264">
        <ele>314.96900791656</ele>
        <time>2017-06-19T16:13:04Z</time>
      </trkpt>
      <trkpt lat="50.34969" lon="5.26301">
        <ele>313.41827700911</ele>
        <time>2017-06-19T16:13:08Z</time>
      </trkpt>
      <trkpt lat="50.34984" lon="5.26343">
        <ele>313.08029928925</ele>
        <time>2017-06-19T16:13:13Z</time>
      </trkpt>
      <trkpt lat="50.34996" lon="5.26378">
        <ele>312.87975492593</ele>
        <time>2017-06-19T16:13:17Z</time>
      </trkpt>
      <trkpt lat="50.35009" lon="5.26416">
        <ele>313.96592974909</ele>
        <time>2017-06-19T16:13:21Z</time>
      </trkpt>
      <trkpt lat="50.35025" lon="5.26465">
        <ele>315.79946496483</ele>
        <time>2017-06-19T16:13:26Z</time>
      </trkpt>
      <trkpt lat="50.35039" lon="5.26504">
        <ele>316.18410401808</ele>
        <time>2017-06-19T16:13:30Z</time>
      </trkpt>
      <trkpt lat="50.35054" lon="5.26543">
        <ele>316.31725224168</ele>
        <time>2017-06-19T16:13:34Z</time>
      </trkpt>
      <trkpt lat="50.35072" lon="5.26591">
        <ele>314.03715488758</ele>
        <time>2017-06-19T16:13:39Z</time>
      </trkpt>
      <trkpt lat="50.35086" lon="5.26627">
        <ele>313.41672660115</ele>
        <time>2017-06-19T16:13:43Z</time>
      </trkpt>
      <trkpt lat="50.35102" lon="5.26669">
        <ele>313.03671304809</ele>
        <time>2017-06-19T16:13:48Z</time>
      </trkpt>
      <trkpt lat="50.35117" lon="5.2671">
        <ele>312.81452114031</ele>
        <time>2017-06-19T16:13:52Z</time>
      </trkpt>
      <trkpt lat="50.35131" lon="5.26751">
        <ele>312.59630260998</ele>
        <time>2017-06-19T16:13:56Z</time>
      </trkpt>
      <trkpt lat="50.35149" lon="5.26803">
        <ele>310.62083272254</ele>
        <time>2017-06-19T16:14:01Z</time>
      </trkpt>
      <trkpt lat="50.35168" lon="5.26851">
        <ele>308.92138032575</ele>
        <time>2017-06-19T16:14:06Z</time>
      </trkpt>
      <trkpt lat="50.35182" lon="5.26889">
        <ele>307.85024406991</ele>
        <time>2017-06-19T16:14:10Z</time>
      </trkpt>
      <trkpt lat="50.35196" lon="5.26926">
        <ele>307.39362724774</ele>
        <time>2017-06-19T16:14:14Z</time>
      </trkpt>
      <trkpt lat="50.35209" lon="5.26965">
        <ele>307.94534715265</ele>
        <time>2017-06-19T16:14:18Z</time>
      </trkpt>
      <trkpt lat="50.35223" lon="5.27005">
        <ele>308.221658992</ele>
        <time>2017-06-19T16:14:22Z</time>
      </trkpt>
      <trkpt lat="50.35237" lon="5.27044">
        <ele>306.75776800893</ele>
        <time>2017-06-19T16:14:26Z</time>
      </trkpt>
      <trkpt lat="50.35254" lon="5.27092">
        <ele>304.67952123218</ele>
        <time>2017-06-19T16:14:31Z</time>
      </trkpt>
      <trkpt lat="50.35271" lon="5.27135">
        <ele>303.03129125108</ele>
        <time>2017-06-19T16:14:35Z</time>
      </trkpt>
      <trkpt lat="50.35293" lon="5.27196">
        <ele>302.2414948198</ele>
        <time>2017-06-19T16:14:40Z</time>
      </trkpt>
      <trkpt lat="50.35317" lon="5.27259">
        <ele>300.1843696031</ele>
        <time>2017-06-19T16:14:45Z</time>
      </trkpt>
      <trkpt lat="50.35335" lon="5.27308">
        <ele>298.64884909561</ele>
        <time>2017-06-19T16:14:49Z</time>
      </trkpt>
      <trkpt lat="50.35354" lon="5.27358">
        <ele>296.76342146527</ele>
        <time>2017-06-19T16:14:53Z</time>
      </trkpt>
      <trkpt lat="50.35372" lon="5.27409">
        <ele>295.00909088503</ele>
        <time>2017-06-19T16:14:57Z</time>
      </trkpt>
      <trkpt lat="50.35392" lon="5.27477">
        <ele>292.40720629799</ele>
        <time>2017-06-19T16:15:02Z</time>
      </trkpt>
      <trkpt lat="50.35399" lon="5.27543">
        <ele>288.62198565535</ele>
        <time>2017-06-19T16:15:06Z</time>
      </trkpt>
      <trkpt lat="50.35402" lon="5.2761">
        <ele>285.77092491799</ele>
        <time>2017-06-19T16:15:10Z</time>
      </trkpt>
      <trkpt lat="50.35406" lon="5.2767">
        <ele>284.24212192521</ele>
        <time>2017-06-19T16:15:14Z</time>
      </trkpt>
      <trkpt lat="50.35415" lon="5.27739">
        <ele>284.3187990543</ele>
        <time>2017-06-19T16:15:19Z</time>
      </trkpt>
      <trkpt lat="50.35428" lon="5.27798">
        <ele>284.56539887514</ele>
        <time>2017-06-19T16:15:24Z</time>
      </trkpt>
      <trkpt lat="50.35442" lon="5.27841">
        <ele>283.74786739681</ele>
        <time>2017-06-19T16:15:28Z</time>
      </trkpt>
      <trkpt lat="50.35457" lon="5.2788">
        <ele>283.04250330485</ele>
        <time>2017-06-19T16:15:32Z</time>
      </trkpt>
      <trkpt lat="50.35475" lon="5.2793">
        <ele>284.31201605983</ele>
        <time>2017-06-19T16:15:37Z</time>
      </trkpt>
      <trkpt lat="50.35494" lon="5.2796">
        <ele>284.95504285887</ele>
        <time>2017-06-19T16:15:41Z</time>
      </trkpt>
      <trkpt lat="50.35515" lon="5.27984">
        <ele>284.18629313421</ele>
        <time>2017-06-19T16:15:45Z</time>
      </trkpt>
      <trkpt lat="50.35535" lon="5.28009">
        <ele>284.36292370159</ele>
        <time>2017-06-19T16:15:49Z</time>
      </trkpt>
      <trkpt lat="50.35555" lon="5.28035">
        <ele>284.94495996718</ele>
        <time>2017-06-19T16:15:53Z</time>
      </trkpt>
      <trkpt lat="50.35578" lon="5.28071">
        <ele>285.15545895226</ele>
        <time>2017-06-19T16:15:58Z</time>
      </trkpt>
      <trkpt lat="50.35598" lon="5.28116">
        <ele>284.26120269897</ele>
        <time>2017-06-19T16:16:03Z</time>
      </trkpt>
      <trkpt lat="50.3561" lon="5.28157">
        <ele>283.84727731368</ele>
        <time>2017-06-19T16:16:07Z</time>
      </trkpt>
      <trkpt lat="50.35622" lon="5.28199">
        <ele>282.76176459869</ele>
        <time>2017-06-19T16:16:11Z</time>
      </trkpt>
      <trkpt lat="50.35635" lon="5.28236">
        <ele>282.4487179095</ele>
        <time>2017-06-19T16:16:15Z</time>
      </trkpt>
      <trkpt lat="50.35651" lon="5.2827">
        <ele>283.39786148705</ele>
        <time>2017-06-19T16:16:20Z</time>
      </trkpt>
      <trkpt lat="50.35665" lon="5.28295">
        <ele>284.19435373639</ele>
        <time>2017-06-19T16:16:24Z</time>
      </trkpt>
      <trkpt lat="50.35678" lon="5.28318">
        <ele>287.18523249186</ele>
        <time>2017-06-19T16:16:28Z</time>
      </trkpt>
      <trkpt lat="50.35702" lon="5.28338">
        <ele>291.17774238078</ele>
        <time>2017-06-19T16:16:33Z</time>
      </trkpt>
      <trkpt lat="50.35722" lon="5.2835">
        <ele>291.66498696331</ele>
        <time>2017-06-19T16:16:37Z</time>
      </trkpt>
      <trkpt lat="50.35741" lon="5.28367">
        <ele>291.41133824504</ele>
        <time>2017-06-19T16:16:41Z</time>
      </trkpt>
      <trkpt lat="50.35757" lon="5.2839">
        <ele>291.70016067443</ele>
        <time>2017-06-19T16:16:45Z</time>
      </trkpt>
      <trkpt lat="50.35778" lon="5.28423">
        <ele>291.25496171567</ele>
        <time>2017-06-19T16:16:50Z</time>
      </trkpt>
      <trkpt lat="50.35797" lon="5.28453">
        <ele>292.39443239733</ele>
        <time>2017-06-19T16:16:55Z</time>
      </trkpt>
      <trkpt lat="50.35816" lon="5.28485">
        <ele>295.17284882131</ele>
        <time>2017-06-19T16:17:00Z</time>
      </trkpt>
      <trkpt lat="50.35832" lon="5.28511">
        <ele>298.58151324128</ele>
        <time>2017-06-19T16:17:04Z</time>
      </trkpt>
      <trkpt lat="50.35853" lon="5.28547">
        <ele>300.32784983331</ele>
        <time>2017-06-19T16:17:09Z</time>
      </trkpt>
      <trkpt lat="50.3587" lon="5.28576">
        <ele>298.37064466009</ele>
        <time>2017-06-19T16:17:13Z</time>
      </trkpt>
      <trkpt lat="50.3589" lon="5.2861">
        <ele>296.90245085803</ele>
        <time>2017-06-19T16:17:18Z</time>
      </trkpt>
      <trkpt lat="50.35907" lon="5.28638">
        <ele>297.00809564631</ele>
        <time>2017-06-19T16:17:22Z</time>
      </trkpt>
      <trkpt lat="50.35923" lon="5.28667">
        <ele>296.77744003601</ele>
        <time>2017-06-19T16:17:26Z</time>
      </trkpt>
      <trkpt lat="50.35939" lon="5.28695">
        <ele>296.42561956872</ele>
        <time>2017-06-19T16:17:30Z</time>
      </trkpt>
      <trkpt lat="50.35954" lon="5.28723">
        <ele>296.41745956024</ele>
        <time>2017-06-19T16:17:34Z</time>
      </trkpt>
      <trkpt lat="50.3597" lon="5.28752">
        <ele>297.1940108599</ele>
        <time>2017-06-19T16:17:38Z</time>
      </trkpt>
      <trkpt lat="50.35988" lon="5.28788">
        <ele>298.69691235611</ele>
        <time>2017-06-19T16:17:43Z</time>
      </trkpt>
      <trkpt lat="50.36004" lon="5.28818">
        <ele>299.72836985754</ele>
        <time>2017-06-19T16:17:47Z</time>
      </trkpt>
      <trkpt lat="50.36019" lon="5.28848">
        <ele>300.45958335586</ele>
        <time>2017-06-19T16:17:51Z</time>
      </trkpt>
      <trkpt lat="50.36038" lon="5.28887">
        <ele>301.26119816962</ele>
        <time>2017-06-19T16:17:56Z</time>
      </trkpt>
      <trkpt lat="50.36054" lon="5.28917">
        <ele>302.34637263849</ele>
        <time>2017-06-19T16:18:00Z</time>
      </trkpt>
      <trkpt lat="50.36069" lon="5.28948">
        <ele>303.4989476251</ele>
        <time>2017-06-19T16:18:04Z</time>
      </trkpt>
      <trkpt lat="50.36088" lon="5.28988">
        <ele>304.48068339107</ele>
        <time>2017-06-19T16:18:09Z</time>
      </trkpt>
      <trkpt lat="50.36103" lon="5.29017">
        <ele>305.12573343944</ele>
        <time>2017-06-19T16:18:13Z</time>
      </trkpt>
      <trkpt lat="50.36123" lon="5.29058">
        <ele>305.89692051703</ele>
        <time>2017-06-19T16:18:18Z</time>
      </trkpt>
      <trkpt lat="50.36138" lon="5.29089">
        <ele>305.75327026056</ele>
        <time>2017-06-19T16:18:22Z</time>
      </trkpt>
      <trkpt lat="50.36157" lon="5.29128">
        <ele>306.02453311559</ele>
        <time>2017-06-19T16:18:27Z</time>
      </trkpt>
      <trkpt lat="50.36172" lon="5.29159">
        <ele>306.66754875032</ele>
        <time>2017-06-19T16:18:31Z</time>
      </trkpt>
      <trkpt lat="50.36192" lon="5.29198">
        <ele>307.10966904433</ele>
        <time>2017-06-19T16:18:36Z</time>
      </trkpt>
      <trkpt lat="50.36207" lon="5.2923">
        <ele>307.32802082282</ele>
        <time>2017-06-19T16:18:40Z</time>
      </trkpt>
      <trkpt lat="50.3622" lon="5.29258">
        <ele>307.53283098949</ele>
        <time>2017-06-19T16:18:44Z</time>
      </trkpt>
      <trkpt lat="50.36232" lon="5.2928">
        <ele>307.78374152435</ele>
        <time>2017-06-19T16:18:48Z</time>
      </trkpt>
      <trkpt lat="50.36244" lon="5.29307">
        <ele>308.07807203876</ele>
        <time>2017-06-19T16:18:53Z</time>
      </trkpt>
      <trkpt lat="50.3625" lon="5.29329">
        <ele>308.31824593421</ele>
        <time>2017-06-19T16:18:57Z</time>
      </trkpt>
      <trkpt lat="50.36241" lon="5.29351">
        <ele>309.33013442008</ele>
        <time>2017-06-19T16:19:01Z</time>
      </trkpt>
      <trkpt lat="50.36226" lon="5.29394">
        <ele>309.58296935063</ele>
        <time>2017-06-19T16:19:06Z</time>
      </trkpt>
      <trkpt lat="50.3621" lon="5.29438">
        <ele>309.42650996414</ele>
        <time>2017-06-19T16:19:11Z</time>
      </trkpt>
      <trkpt lat="50.36194" lon="5.2948">
        <ele>309.90614052219</ele>
        <time>2017-06-19T16:19:15Z</time>
      </trkpt>
      <trkpt lat="50.3618" lon="5.29518">
        <ele>310.05726251327</ele>
        <time>2017-06-19T16:19:19Z</time>
      </trkpt>
      <trkpt lat="50.36164" lon="5.29562">
        <ele>309.12596272898</ele>
        <time>2017-06-19T16:19:23Z</time>
      </trkpt>
      <trkpt lat="50.36148" lon="5.29605">
        <ele>308.34922989123</ele>
        <time>2017-06-19T16:19:27Z</time>
      </trkpt>
      <trkpt lat="50.36126" lon="5.29659">
        <ele>307.42957192746</ele>
        <time>2017-06-19T16:19:32Z</time>
      </trkpt>
      <trkpt lat="50.36112" lon="5.29695">
        <ele>306.55128325636</ele>
        <time>2017-06-19T16:19:36Z</time>
      </trkpt>
      <trkpt lat="50.36098" lon="5.2973">
        <ele>305.24992621364</ele>
        <time>2017-06-19T16:19:40Z</time>
      </trkpt>
      <trkpt lat="50.3608" lon="5.2977">
        <ele>304.19901818146</ele>
        <time>2017-06-19T16:19:44Z</time>
      </trkpt>
      <trkpt lat="50.36066" lon="5.29802">
        <ele>304.21496023242</ele>
        <time>2017-06-19T16:19:48Z</time>
      </trkpt>
      <trkpt lat="50.36052" lon="5.29836">
        <ele>303.93358358039</ele>
        <time>2017-06-19T16:19:52Z</time>
      </trkpt>
      <trkpt lat="50.36044" lon="5.29867">
        <ele>302.35925751782</ele>
        <time>2017-06-19T16:19:56Z</time>
      </trkpt>
      <trkpt lat="50.36062" lon="5.29903">
        <ele>301.50927870245</ele>
        <time>2017-06-19T16:20:01Z</time>
      </trkpt>
      <trkpt lat="50.36082" lon="5.29929">
        <ele>300.61005825396</ele>
        <time>2017-06-19T16:20:05Z</time>
      </trkpt>
      <trkpt lat="50.361" lon="5.29959">
        <ele>300.1977346172</ele>
        <time>2017-06-19T16:20:09Z</time>
      </trkpt>
      <trkpt lat="50.36119" lon="5.30007">
        <ele>300.28051811153</ele>
        <time>2017-06-19T16:20:14Z</time>
      </trkpt>
      <trkpt lat="50.36134" lon="5.30046">
        <ele>300.16812637143</ele>
        <time>2017-06-19T16:20:18Z</time>
      </trkpt>
      <trkpt lat="50.36152" lon="5.30094">
        <ele>300.21534392222</ele>
        <time>2017-06-19T16:20:23Z</time>
      </trkpt>
      <trkpt lat="50.36167" lon="5.30132">
        <ele>300.3380223365</ele>
        <time>2017-06-19T16:20:27Z</time>
      </trkpt>
      <trkpt lat="50.36185" lon="5.30177">
        <ele>300.53550921461</ele>
        <time>2017-06-19T16:20:32Z</time>
      </trkpt>
      <trkpt lat="50.36208" lon="5.30223">
        <ele>300.11153357352</ele>
        <time>2017-06-19T16:20:37Z</time>
      </trkpt>
      <trkpt lat="50.36226" lon="5.30257">
        <ele>299.93066167175</ele>
        <time>2017-06-19T16:20:41Z</time>
      </trkpt>
      <trkpt lat="50.3625" lon="5.303">
        <ele>299.79947921208</ele>
        <time>2017-06-19T16:20:46Z</time>
      </trkpt>
      <trkpt lat="50.36268" lon="5.30336">
        <ele>299.44416941123</ele>
        <time>2017-06-19T16:20:50Z</time>
      </trkpt>
      <trkpt lat="50.36291" lon="5.30379">
        <ele>299.2260673155</ele>
        <time>2017-06-19T16:20:55Z</time>
      </trkpt>
      <trkpt lat="50.36308" lon="5.30413">
        <ele>299.26883972222</ele>
        <time>2017-06-19T16:20:59Z</time>
      </trkpt>
      <trkpt lat="50.36327" lon="5.30448">
        <ele>299.09257864717</ele>
        <time>2017-06-19T16:21:03Z</time>
      </trkpt>
      <trkpt lat="50.36349" lon="5.30491">
        <ele>298.75145036313</ele>
        <time>2017-06-19T16:21:08Z</time>
      </trkpt>
      <trkpt lat="50.36372" lon="5.30529">
        <ele>298.84864077057</ele>
        <time>2017-06-19T16:21:13Z</time>
      </trkpt>
      <trkpt lat="50.36391" lon="5.30559">
        <ele>299.0435378971</ele>
        <time>2017-06-19T16:21:17Z</time>
      </trkpt>
      <trkpt lat="50.36412" lon="5.30588">
        <ele>298.29708059738</ele>
        <time>2017-06-19T16:21:21Z</time>
      </trkpt>
      <trkpt lat="50.36434" lon="5.30616">
        <ele>297.88773591291</ele>
        <time>2017-06-19T16:21:25Z</time>
      </trkpt>
      <trkpt lat="50.36456" lon="5.30644">
        <ele>297.77456203239</ele>
        <time>2017-06-19T16:21:29Z</time>
      </trkpt>
      <trkpt lat="50.36483" lon="5.3068">
        <ele>297.77507242925</ele>
        <time>2017-06-19T16:21:34Z</time>
      </trkpt>
      <trkpt lat="50.36511" lon="5.30714">
        <ele>297.87397562225</ele>
        <time>2017-06-19T16:21:39Z</time>
      </trkpt>
      <trkpt lat="50.36532" lon="5.30742">
        <ele>297.90929410987</ele>
        <time>2017-06-19T16:21:43Z</time>
      </trkpt>
      <trkpt lat="50.36553" lon="5.30771">
        <ele>298.01578018233</ele>
        <time>2017-06-19T16:21:47Z</time>
      </trkpt>
      <trkpt lat="50.36574" lon="5.30803">
        <ele>297.6806234415</ele>
        <time>2017-06-19T16:21:51Z</time>
      </trkpt>
      <trkpt lat="50.36593" lon="5.30833">
        <ele>296.96873962453</ele>
        <time>2017-06-19T16:21:55Z</time>
      </trkpt>
      <trkpt lat="50.36612" lon="5.30866">
        <ele>296.89562035918</ele>
        <time>2017-06-19T16:21:59Z</time>
      </trkpt>
      <trkpt lat="50.36636" lon="5.30908">
        <ele>297.51615004502</ele>
        <time>2017-06-19T16:22:04Z</time>
      </trkpt>
      <trkpt lat="50.36656" lon="5.30942">
        <ele>297.20909692518</ele>
        <time>2017-06-19T16:22:08Z</time>
      </trkpt>
      <trkpt lat="50.3668" lon="5.30984">
        <ele>296.45252437021</ele>
        <time>2017-06-19T16:22:13Z</time>
      </trkpt>
      <trkpt lat="50.367" lon="5.31015">
        <ele>295.84954506195</ele>
        <time>2017-06-19T16:22:17Z</time>
      </trkpt>
      <trkpt lat="50.36725" lon="5.31057">
        <ele>295.9100882549</ele>
        <time>2017-06-19T16:22:22Z</time>
      </trkpt>
      <trkpt lat="50.36742" lon="5.31092">
        <ele>295.3567284699</ele>
        <time>2017-06-19T16:22:26Z</time>
      </trkpt>
      <trkpt lat="50.36758" lon="5.31128">
        <ele>294.99646048316</ele>
        <time>2017-06-19T16:22:30Z</time>
      </trkpt>
      <trkpt lat="50.36772" lon="5.31165">
        <ele>294.97390660552</ele>
        <time>2017-06-19T16:22:34Z</time>
      </trkpt>
      <trkpt lat="50.36786" lon="5.31204">
        <ele>294.9251746309</ele>
        <time>2017-06-19T16:22:38Z</time>
      </trkpt>
      <trkpt lat="50.36803" lon="5.31248">
        <ele>294.0272903276</ele>
        <time>2017-06-19T16:22:43Z</time>
      </trkpt>
      <trkpt lat="50.36814" lon="5.31279">
        <ele>292.40063596244</ele>
        <time>2017-06-19T16:22:47Z</time>
      </trkpt>
      <trkpt lat="50.36824" lon="5.31312">
        <ele>292.10555494967</ele>
        <time>2017-06-19T16:22:52Z</time>
      </trkpt>
      <trkpt lat="50.36831" lon="5.31344">
        <ele>292.68267786455</ele>
        <time>2017-06-19T16:22:56Z</time>
      </trkpt>
      <trkpt lat="50.36842" lon="5.31387">
        <ele>293.49848636809</ele>
        <time>2017-06-19T16:23:01Z</time>
      </trkpt>
      <trkpt lat="50.36851" lon="5.31419">
        <ele>293.82113751019</ele>
        <time>2017-06-19T16:23:05Z</time>
      </trkpt>
      <trkpt lat="50.36865" lon="5.31454">
        <ele>294.21930374354</ele>
        <time>2017-06-19T16:23:09Z</time>
      </trkpt>
      <trkpt lat="50.36881" lon="5.31488">
        <ele>294.40687137109</ele>
        <time>2017-06-19T16:23:13Z</time>
      </trkpt>
      <trkpt lat="50.36898" lon="5.31522">
        <ele>294.48211569306</ele>
        <time>2017-06-19T16:23:17Z</time>
      </trkpt>
      <trkpt lat="50.36914" lon="5.31556">
        <ele>294.95798605684</ele>
        <time>2017-06-19T16:23:21Z</time>
      </trkpt>
      <trkpt lat="50.36931" lon="5.3159">
        <ele>294.90095417909</ele>
        <time>2017-06-19T16:23:25Z</time>
      </trkpt>
      <trkpt lat="50.36945" lon="5.31627">
        <ele>294.83841784842</ele>
        <time>2017-06-19T16:23:29Z</time>
      </trkpt>
      <trkpt lat="50.36956" lon="5.31678">
        <ele>294.85097761934</ele>
        <time>2017-06-19T16:23:34Z</time>
      </trkpt>
      <trkpt lat="50.36964" lon="5.31721">
        <ele>294.56526071487</ele>
        <time>2017-06-19T16:23:38Z</time>
      </trkpt>
      <trkpt lat="50.36974" lon="5.31772">
        <ele>294.09652142277</ele>
        <time>2017-06-19T16:23:43Z</time>
      </trkpt>
      <trkpt lat="50.36989" lon="5.31819">
        <ele>294.11951419631</ele>
        <time>2017-06-19T16:23:48Z</time>
      </trkpt>
      <trkpt lat="50.37002" lon="5.31852">
        <ele>294.35859586517</ele>
        <time>2017-06-19T16:23:52Z</time>
      </trkpt>
      <trkpt lat="50.37015" lon="5.31886">
        <ele>294.78357358789</ele>
        <time>2017-06-19T16:23:56Z</time>
      </trkpt>
      <trkpt lat="50.37028" lon="5.31921">
        <ele>295.28694294451</ele>
        <time>2017-06-19T16:24:00Z</time>
      </trkpt>
      <trkpt lat="50.37042" lon="5.31966">
        <ele>296.06196769517</ele>
        <time>2017-06-19T16:24:05Z</time>
      </trkpt>
      <trkpt lat="50.37052" lon="5.32006">
        <ele>296.35377337348</ele>
        <time>2017-06-19T16:24:09Z</time>
      </trkpt>
      <trkpt lat="50.37064" lon="5.32057">
        <ele>296.04701260395</ele>
        <time>2017-06-19T16:24:14Z</time>
      </trkpt>
      <trkpt lat="50.37072" lon="5.32098">
        <ele>295.76597491108</ele>
        <time>2017-06-19T16:24:18Z</time>
      </trkpt>
      <trkpt lat="50.37082" lon="5.32141">
        <ele>295.10392913817</ele>
        <time>2017-06-19T16:24:22Z</time>
      </trkpt>
      <trkpt lat="50.37092" lon="5.32182">
        <ele>294.23150568672</ele>
        <time>2017-06-19T16:24:26Z</time>
      </trkpt>
      <trkpt lat="50.37102" lon="5.3224">
        <ele>292.75416716704</ele>
        <time>2017-06-19T16:24:31Z</time>
      </trkpt>
      <trkpt lat="50.37109" lon="5.3229">
        <ele>291.04735545879</ele>
        <time>2017-06-19T16:24:35Z</time>
      </trkpt>
      <trkpt lat="50.3712" lon="5.32339">
        <ele>289.64630308294</ele>
        <time>2017-06-19T16:24:39Z</time>
      </trkpt>
      <trkpt lat="50.37135" lon="5.32393">
        <ele>287.39379252192</ele>
        <time>2017-06-19T16:24:43Z</time>
      </trkpt>
      <trkpt lat="50.37156" lon="5.32458">
        <ele>285.45424941335</ele>
        <time>2017-06-19T16:24:48Z</time>
      </trkpt>
      <trkpt lat="50.37175" lon="5.32511">
        <ele>284.49677552034</ele>
        <time>2017-06-19T16:24:53Z</time>
      </trkpt>
      <trkpt lat="50.37178" lon="5.32539">
        <ele>283.96901969481</ele>
        <time>2017-06-19T16:24:57Z</time>
      </trkpt>
      <trkpt lat="50.37167" lon="5.32551">
        <ele>283.54302616433</ele>
        <time>2017-06-19T16:25:01Z</time>
      </trkpt>
      <trkpt lat="50.37149" lon="5.32564">
        <ele>282.50872906552</ele>
        <time>2017-06-19T16:25:05Z</time>
      </trkpt>
      <trkpt lat="50.37121" lon="5.32582">
        <ele>282.06096987886</ele>
        <time>2017-06-19T16:25:10Z</time>
      </trkpt>
      <trkpt lat="50.37097" lon="5.32599">
        <ele>282.03671598533</ele>
        <time>2017-06-19T16:25:14Z</time>
      </trkpt>
      <trkpt lat="50.37067" lon="5.3262">
        <ele>281.74126469259</ele>
        <time>2017-06-19T16:25:19Z</time>
      </trkpt>
      <trkpt lat="50.37043" lon="5.32637">
        <ele>281.32665347347</ele>
        <time>2017-06-19T16:25:23Z</time>
      </trkpt>
      <trkpt lat="50.37015" lon="5.32661">
        <ele>279.59883179247</ele>
        <time>2017-06-19T16:25:28Z</time>
      </trkpt>
      <trkpt lat="50.36997" lon="5.32686">
        <ele>278.62643250969</ele>
        <time>2017-06-19T16:25:32Z</time>
      </trkpt>
      <trkpt lat="50.36978" lon="5.32723">
        <ele>277.89202075729</ele>
        <time>2017-06-19T16:25:36Z</time>
      </trkpt>
      <trkpt lat="50.36962" lon="5.32753">
        <ele>277.48602841471</ele>
        <time>2017-06-19T16:25:40Z</time>
      </trkpt>
      <trkpt lat="50.36944" lon="5.32785">
        <ele>277.69341736896</ele>
        <time>2017-06-19T16:25:45Z</time>
      </trkpt>
      <trkpt lat="50.36922" lon="5.32808">
        <ele>278.52693783072</ele>
        <time>2017-06-19T16:25:49Z</time>
      </trkpt>
      <trkpt lat="50.369" lon="5.32822">
        <ele>279.02553773901</ele>
        <time>2017-06-19T16:25:53Z</time>
      </trkpt>
      <trkpt lat="50.36872" lon="5.32837">
        <ele>278.87192520567</ele>
        <time>2017-06-19T16:25:58Z</time>
      </trkpt>
      <trkpt lat="50.36842" lon="5.32844">
        <ele>277.46840243722</ele>
        <time>2017-06-19T16:26:03Z</time>
      </trkpt>
      <trkpt lat="50.36821" lon="5.32848">
        <ele>275.88091933519</ele>
        <time>2017-06-19T16:26:07Z</time>
      </trkpt>
      <trkpt lat="50.36801" lon="5.32853">
        <ele>275.66810124131</ele>
        <time>2017-06-19T16:26:11Z</time>
      </trkpt>
      <trkpt lat="50.36772" lon="5.32862">
        <ele>275.88887258073</ele>
        <time>2017-06-19T16:26:16Z</time>
      </trkpt>
      <trkpt lat="50.36743" lon="5.32872">
        <ele>275.63044311762</ele>
        <time>2017-06-19T16:26:21Z</time>
      </trkpt>
      <trkpt lat="50.3672" lon="5.3288">
        <ele>276.65309729088</ele>
        <time>2017-06-19T16:26:25Z</time>
      </trkpt>
      <trkpt lat="50.36699" lon="5.32895">
        <ele>278.86676139523</ele>
        <time>2017-06-19T16:26:29Z</time>
      </trkpt>
      <trkpt lat="50.36679" lon="5.32914">
        <ele>279.586863993</ele>
        <time>2017-06-19T16:26:33Z</time>
      </trkpt>
      <trkpt lat="50.36658" lon="5.32934">
        <ele>280.4953532949</ele>
        <time>2017-06-19T16:26:37Z</time>
      </trkpt>
      <trkpt lat="50.36637" lon="5.32955">
        <ele>281.98597807033</ele>
        <time>2017-06-19T16:26:41Z</time>
      </trkpt>
      <trkpt lat="50.36616" lon="5.32977">
        <ele>284.00890771643</ele>
        <time>2017-06-19T16:26:45Z</time>
      </trkpt>
      <trkpt lat="50.36596" lon="5.32998">
        <ele>286.1472947089</ele>
        <time>2017-06-19T16:26:49Z</time>
      </trkpt>
      <trkpt lat="50.36574" lon="5.33017">
        <ele>288.43201888936</ele>
        <time>2017-06-19T16:26:53Z</time>
      </trkpt>
      <trkpt lat="50.36545" lon="5.33039">
        <ele>290.26754783469</ele>
        <time>2017-06-19T16:26:58Z</time>
      </trkpt>
      <trkpt lat="50.36517" lon="5.33059">
        <ele>291.26678830106</ele>
        <time>2017-06-19T16:27:03Z</time>
      </trkpt>
      <trkpt lat="50.36491" lon="5.33076">
        <ele>291.13477288971</ele>
        <time>2017-06-19T16:27:07Z</time>
      </trkpt>
      <trkpt lat="50.36462" lon="5.33101">
        <ele>290.27762630091</ele>
        <time>2017-06-19T16:27:12Z</time>
      </trkpt>
      <trkpt lat="50.36441" lon="5.33123">
        <ele>289.92394210219</ele>
        <time>2017-06-19T16:27:16Z</time>
      </trkpt>
      <trkpt lat="50.36423" lon="5.33141">
        <ele>290.23584529233</ele>
        <time>2017-06-19T16:27:20Z</time>
      </trkpt>
      <trkpt lat="50.36404" lon="5.33161">
        <ele>290.37167086783</ele>
        <time>2017-06-19T16:27:24Z</time>
      </trkpt>
      <trkpt lat="50.36385" lon="5.33181">
        <ele>290.36316197214</ele>
        <time>2017-06-19T16:27:28Z</time>
      </trkpt>
      <trkpt lat="50.36365" lon="5.33201">
        <ele>291.00587733317</ele>
        <time>2017-06-19T16:27:32Z</time>
      </trkpt>
      <trkpt lat="50.36344" lon="5.3323">
        <ele>292.52576747862</ele>
        <time>2017-06-19T16:27:37Z</time>
      </trkpt>
      <trkpt lat="50.36337" lon="5.33273">
        <ele>294.49406729909</ele>
        <time>2017-06-19T16:27:42Z</time>
      </trkpt>
      <trkpt lat="50.36336" lon="5.33307">
        <ele>296.03311144934</ele>
        <time>2017-06-19T16:27:46Z</time>
      </trkpt>
      <trkpt lat="50.36335" lon="5.3335">
        <ele>297.5911558998</ele>
        <time>2017-06-19T16:27:51Z</time>
      </trkpt>
      <trkpt lat="50.3633" lon="5.33389">
        <ele>299.23338063124</ele>
        <time>2017-06-19T16:27:56Z</time>
      </trkpt>
      <trkpt lat="50.36323" lon="5.33418">
        <ele>300.128571369</ele>
        <time>2017-06-19T16:28:00Z</time>
      </trkpt>
      <trkpt lat="50.36311" lon="5.33445">
        <ele>300.33532309908</ele>
        <time>2017-06-19T16:28:04Z</time>
      </trkpt>
      <trkpt lat="50.36297" lon="5.33469">
        <ele>299.77891073888</ele>
        <time>2017-06-19T16:28:08Z</time>
      </trkpt>
      <trkpt lat="50.36282" lon="5.33493">
        <ele>299.55613983098</ele>
        <time>2017-06-19T16:28:13Z</time>
      </trkpt>
      <trkpt lat="50.36274" lon="5.33502">
        <ele>299.60404601721</ele>
        <time>2017-06-19T16:28:17Z</time>
      </trkpt>
      <trkpt lat="50.36259" lon="5.33493">
        <ele>299.70063745254</ele>
        <time>2017-06-19T16:28:21Z</time>
      </trkpt>
      <trkpt lat="50.36241" lon="5.33469">
        <ele>300.07373225588</ele>
        <time>2017-06-19T16:28:26Z</time>
      </trkpt>
      <trkpt lat="50.36225" lon="5.33452">
        <ele>300.69756232234</ele>
        <time>2017-06-19T16:28:30Z</time>
      </trkpt>
      <trkpt lat="50.36206" lon="5.33436">
        <ele>301.04939940234</ele>
        <time>2017-06-19T16:28:34Z</time>
      </trkpt>
      <trkpt lat="50.36186" lon="5.33411">
        <ele>301.91500772456</ele>
        <time>2017-06-19T16:28:39Z</time>
      </trkpt>
      <trkpt lat="50.36172" lon="5.33379">
        <ele>306.11464108977</ele>
        <time>2017-06-19T16:28:44Z</time>
      </trkpt>
      <trkpt lat="50.36162" lon="5.33347">
        <ele>307.78704474389</ele>
        <time>2017-06-19T16:28:48Z</time>
      </trkpt>
      <trkpt lat="50.36154" lon="5.33316">
        <ele>307.79806953843</ele>
        <time>2017-06-19T16:28:52Z</time>
      </trkpt>
      <trkpt lat="50.36147" lon="5.33285">
        <ele>307.63636192266</ele>
        <time>2017-06-19T16:28:56Z</time>
      </trkpt>
      <trkpt lat="50.36138" lon="5.33245">
        <ele>306.78466497194</ele>
        <time>2017-06-19T16:29:01Z</time>
      </trkpt>
      <trkpt lat="50.36137" lon="5.33223">
        <ele>306.63247284524</ele>
        <time>2017-06-19T16:29:05Z</time>
      </trkpt>
      <trkpt lat="50.36144" lon="5.33215">
        <ele>306.93092604415</ele>
        <time>2017-06-19T16:29:09Z</time>
      </trkpt>
      <trkpt lat="50.36148" lon="5.33215">
        <ele>312.34220175548</ele>
        <time>2017-06-19T16:30:46Z</time>
      </trkpt>
    </trkseg>
  </trk>
</gpx>